<?xml version='1.0' encoding='utf-8'?>
<gpx xmlns="http://www.topografix.com/GPX/1/1" creator="HOLUX ezTour Plus" version="1.1">
<metadata>
<link href="http://www.holux.com"><text>HOLUX Technology, Inc.</text></link>
<time>2013-11-27T20:35:13Z</time></metadata>
<trk>
<name>Holux2013/11/22_08:06</name>
<trkseg>
<trkpt lat="30.618669510" lon="34.801616669">
<ele>836.6</ele>
<time>2013-11-22T06:06:28Z</time>
<speed>0.040000</speed>
<extensions>
<speed>0.0</speed>
<temp>0.00</temp>
<bpm>0</bpm>
<rpm>0.00</rpm>
</extensions>
</trkpt>
<trkpt lat="30.618455887" lon="34.801593781">
<ele>836.6</ele>
<time>2013-11-22T06:11:08Z</time>
<speed>0.070000</speed>
<extensions>
<speed>0.1</speed>
<temp>0.00</temp>
<bpm>0</bpm>
<rpm>0.00</rpm>
</extensions>
</trkpt>
<trkpt lat="30.618616104" lon="34.801620483">
<ele>836.6</ele>
<time>2013-11-22T06:15:18Z</time>
<speed>0.070000</speed>
<extensions>
<speed>0.1</speed>
<temp>0.00</temp>
<bpm>0</bpm>
<rpm>0.00</rpm>
</extensions>
</trkpt>
<trkpt lat="30.618577957" lon="34.801753998">
<ele>836.9</ele>
<time>2013-11-22T06:15:38Z</time>
<speed>1.320000</speed>
<extensions>
<speed>1.3</speed>
<temp>0.00</temp>
<bpm>0</bpm>
<rpm>0.00</rpm>
</extensions>
</trkpt>
<trkpt lat="30.618461609" lon="34.800464630">
<ele>832.1</ele>
<time>2013-11-22T06:16:18Z</time>
<speed>4.010000</speed>
<extensions>
<speed>4.0</speed>
<temp>0.00</temp>
<bpm>0</bpm>
<rpm>0.00</rpm>
</extensions>
</trkpt>
<trkpt lat="30.617498398" lon="34.800613403">
<ele>835.3</ele>
<time>2013-11-22T06:16:58Z</time>
<speed>2.240000</speed>
<extensions>
<speed>2.2</speed>
<temp>0.00</temp>
<bpm>0</bpm>
<rpm>0.00</rpm>
</extensions>
</trkpt>
<trkpt lat="30.616729736" lon="34.800464630">
<ele>835.5</ele>
<time>2013-11-22T06:17:28Z</time>
<speed>1.820000</speed>
<extensions>
<speed>1.8</speed>
<temp>0.00</temp>
<bpm>0</bpm>
<rpm>0.00</rpm>
</extensions>
</trkpt>
<trkpt lat="30.616485596" lon="34.800750732">
<ele>836.6</ele>
<time>2013-11-22T06:17:43Z</time>
<speed>2.600000</speed>
<extensions>
<speed>2.6</speed>
<temp>0.00</temp>
<bpm>0</bpm>
<rpm>0.00</rpm>
</extensions>
</trkpt>
<trkpt lat="30.616119385" lon="34.803440094">
<ele>839.9</ele>
<time>2013-11-22T06:18:58Z</time>
<speed>3.480000</speed>
<extensions>
<speed>3.5</speed>
<temp>0.00</temp>
<bpm>0</bpm>
<rpm>0.00</rpm>
</extensions>
</trkpt>
<trkpt lat="30.614309311" lon="34.803459167">
<ele>835.4</ele>
<time>2013-11-22T06:19:53Z</time>
<speed>4.740000</speed>
<extensions>
<speed>4.7</speed>
<temp>0.00</temp>
<bpm>0</bpm>
<rpm>0.00</rpm>
</extensions>
</trkpt>
<trkpt lat="30.613275528" lon="34.803783417">
<ele>835.3</ele>
<time>2013-11-22T06:20:23Z</time>
<speed>2.250000</speed>
<extensions>
<speed>2.3</speed>
<temp>0.00</temp>
<bpm>0</bpm>
<rpm>0.00</rpm>
</extensions>
</trkpt>
<trkpt lat="30.612823486" lon="34.803623199">
<ele>836.4</ele>
<time>2013-11-22T06:20:48Z</time>
<speed>2.180000</speed>
<extensions>
<speed>2.2</speed>
<temp>0.00</temp>
<bpm>0</bpm>
<rpm>0.00</rpm>
</extensions>
</trkpt>
<trkpt lat="30.612628937" lon="34.803821564">
<ele>837.4</ele>
<time>2013-11-22T06:20:58Z</time>
<speed>3.230000</speed>
<extensions>
<speed>3.2</speed>
<temp>0.00</temp>
<bpm>0</bpm>
<rpm>0.00</rpm>
</extensions>
</trkpt>
<trkpt lat="30.612573624" lon="34.804233551">
<ele>838.3</ele>
<time>2013-11-22T06:21:13Z</time>
<speed>1.510000</speed>
<extensions>
<speed>1.5</speed>
<temp>0.00</temp>
<bpm>0</bpm>
<rpm>0.00</rpm>
</extensions>
</trkpt>
<trkpt lat="30.612266541" lon="34.804447174">
<ele>839.5</ele>
<time>2013-11-22T06:21:38Z</time>
<speed>1.600000</speed>
<extensions>
<speed>1.6</speed>
<temp>0.00</temp>
<bpm>0</bpm>
<rpm>0.00</rpm>
</extensions>
</trkpt>
<trkpt lat="30.612434387" lon="34.804756165">
<ele>838.6</ele>
<time>2013-11-22T06:22:43Z</time>
<speed>0.040000</speed>
<extensions>
<speed>0.0</speed>
<temp>0.00</temp>
<bpm>0</bpm>
<rpm>0.00</rpm>
</extensions>
</trkpt>
<trkpt lat="30.612289429" lon="34.804611206">
<ele>839.2</ele>
<time>2013-11-22T06:30:08Z</time>
<speed>0.020000</speed>
<extensions>
<speed>0.0</speed>
<temp>0.00</temp>
<bpm>0</bpm>
<rpm>0.00</rpm>
</extensions>
</trkpt>
<trkpt lat="30.612579346" lon="34.804504395">
<ele>838.5</ele>
<time>2013-11-22T06:31:03Z</time>
<speed>2.370000</speed>
<extensions>
<speed>2.4</speed>
<temp>0.00</temp>
<bpm>0</bpm>
<rpm>0.00</rpm>
</extensions>
</trkpt>
<trkpt lat="30.612268448" lon="34.804443359">
<ele>839.5</ele>
<time>2013-11-22T06:31:18Z</time>
<speed>2.160000</speed>
<extensions>
<speed>2.2</speed>
<temp>0.00</temp>
<bpm>0</bpm>
<rpm>0.00</rpm>
</extensions>
</trkpt>
<trkpt lat="30.612312317" lon="34.804336548">
<ele>839.1</ele>
<time>2013-11-22T06:31:23Z</time>
<speed>3.510000</speed>
<extensions>
<speed>3.5</speed>
<temp>0.00</temp>
<bpm>0</bpm>
<rpm>0.00</rpm>
</extensions>
</trkpt>
<trkpt lat="30.612987518" lon="34.804393768">
<ele>835.7</ele>
<time>2013-11-22T06:32:48Z</time>
<speed>0.170000</speed>
<extensions>
<speed>0.2</speed>
<temp>0.00</temp>
<bpm>0</bpm>
<rpm>0.00</rpm>
</extensions>
</trkpt>
<trkpt lat="30.614625931" lon="34.805641174">
<ele>830.6</ele>
<time>2013-11-22T06:34:58Z</time>
<extensions>
<speed>0.0</speed>
<temp>0.00</temp>
<bpm>0</bpm>
<rpm>0.00</rpm>
</extensions>
</trkpt>
<trkpt lat="30.614450455" lon="34.806995392">
<ele>827.7</ele>
<time>2013-11-22T06:40:13Z</time>
<speed>1.760000</speed>
<extensions>
<speed>1.8</speed>
<temp>0.00</temp>
<bpm>0</bpm>
<rpm>0.00</rpm>
</extensions>
</trkpt>
<trkpt lat="30.614091873" lon="34.807476044">
<ele>830.8</ele>
<time>2013-11-22T06:40:33Z</time>
<speed>2.050000</speed>
<extensions>
<speed>2.1</speed>
<temp>0.00</temp>
<bpm>0</bpm>
<rpm>0.00</rpm>
</extensions>
</trkpt>
<trkpt lat="30.614286423" lon="34.808109283">
<ele>832.0</ele>
<time>2013-11-22T06:41:08Z</time>
<speed>0.030000</speed>
<extensions>
<speed>0.0</speed>
<temp>0.00</temp>
<bpm>0</bpm>
<rpm>0.00</rpm>
</extensions>
</trkpt>
<trkpt lat="30.614654541" lon="34.808349609">
<ele>820.2</ele>
<time>2013-11-22T06:41:58Z</time>
<speed>3.120000</speed>
<extensions>
<speed>3.1</speed>
<temp>0.00</temp>
<bpm>0</bpm>
<rpm>0.00</rpm>
</extensions>
</trkpt>
<trkpt lat="30.615205765" lon="34.808109283">
<ele>826.3</ele>
<time>2013-11-22T06:42:43Z</time>
<speed>2.010000</speed>
<extensions>
<speed>2.0</speed>
<temp>0.00</temp>
<bpm>0</bpm>
<rpm>0.00</rpm>
</extensions>
</trkpt>
<trkpt lat="30.615247726" lon="34.807842255">
<ele>825.7</ele>
<time>2013-11-22T06:42:58Z</time>
<speed>2.090000</speed>
<extensions>
<speed>2.1</speed>
<temp>0.00</temp>
<bpm>0</bpm>
<rpm>0.00</rpm>
</extensions>
</trkpt>
<trkpt lat="30.616477966" lon="34.807556152">
<ele>822.5</ele>
<time>2013-11-22T06:43:43Z</time>
<speed>1.830000</speed>
<extensions>
<speed>1.8</speed>
<temp>0.00</temp>
<bpm>0</bpm>
<rpm>0.00</rpm>
</extensions>
</trkpt>
<trkpt lat="30.617006302" lon="34.808193207">
<ele>821.5</ele>
<time>2013-11-22T06:44:08Z</time>
<speed>4.500000</speed>
<extensions>
<speed>4.5</speed>
<temp>0.00</temp>
<bpm>0</bpm>
<rpm>0.00</rpm>
</extensions>
</trkpt>
<trkpt lat="30.616977692" lon="34.808982849">
<ele>814.6</ele>
<time>2013-11-22T06:44:33Z</time>
<speed>3.050000</speed>
<extensions>
<speed>3.0</speed>
<temp>0.00</temp>
<bpm>0</bpm>
<rpm>0.00</rpm>
</extensions>
</trkpt>
<trkpt lat="30.617246628" lon="34.809551239">
<ele>803.0</ele>
<time>2013-11-22T06:44:53Z</time>
<speed>2.450000</speed>
<extensions>
<speed>2.4</speed>
<temp>0.00</temp>
<bpm>0</bpm>
<rpm>0.00</rpm>
</extensions>
</trkpt>
<trkpt lat="30.617914200" lon="34.810035706">
<ele>817.6</ele>
<time>2013-11-22T06:45:23Z</time>
<speed>2.750000</speed>
<extensions>
<speed>2.7</speed>
<temp>0.00</temp>
<bpm>0</bpm>
<rpm>0.00</rpm>
</extensions>
</trkpt>
<trkpt lat="30.618307114" lon="34.810569763">
<ele>794.7</ele>
<time>2013-11-22T06:45:48Z</time>
<speed>3.270000</speed>
<extensions>
<speed>3.3</speed>
<temp>0.00</temp>
<bpm>0</bpm>
<rpm>0.00</rpm>
</extensions>
</trkpt>
<trkpt lat="30.618936539" lon="34.810962677">
<ele>813.6</ele>
<time>2013-11-22T06:46:13Z</time>
<speed>2.420000</speed>
<extensions>
<speed>2.4</speed>
<temp>0.00</temp>
<bpm>0</bpm>
<rpm>0.00</rpm>
</extensions>
</trkpt>
<trkpt lat="30.619167328" lon="34.811382294">
<ele>813.4</ele>
<time>2013-11-22T06:46:28Z</time>
<speed>3.590000</speed>
<extensions>
<speed>3.6</speed>
<temp>0.00</temp>
<bpm>0</bpm>
<rpm>0.00</rpm>
</extensions>
</trkpt>
<trkpt lat="30.619894028" lon="34.811889648">
<ele>813.8</ele>
<time>2013-11-22T06:46:48Z</time>
<speed>4.630000</speed>
<extensions>
<speed>4.6</speed>
<temp>0.00</temp>
<bpm>0</bpm>
<rpm>0.00</rpm>
</extensions>
</trkpt>
<trkpt lat="30.619792938" lon="34.812751770">
<ele>806.6</ele>
<time>2013-11-22T06:47:08Z</time>
<speed>3.720000</speed>
<extensions>
<speed>3.7</speed>
<temp>0.00</temp>
<bpm>0</bpm>
<rpm>0.00</rpm>
</extensions>
</trkpt>
<trkpt lat="30.619892120" lon="34.813587189">
<ele>789.9</ele>
<time>2013-11-22T06:47:58Z</time>
<speed>0.050000</speed>
<extensions>
<speed>0.1</speed>
<temp>0.00</temp>
<bpm>0</bpm>
<rpm>0.00</rpm>
</extensions>
</trkpt>
<trkpt lat="30.620687485" lon="34.814300537">
<ele>795.1</ele>
<time>2013-11-22T06:49:03Z</time>
<speed>2.690000</speed>
<extensions>
<speed>2.7</speed>
<temp>0.00</temp>
<bpm>0</bpm>
<rpm>0.00</rpm>
</extensions>
</trkpt>
<trkpt lat="30.621284485" lon="34.814548492">
<ele>811.8</ele>
<time>2013-11-22T06:49:33Z</time>
<speed>2.050000</speed>
<extensions>
<speed>2.1</speed>
<temp>0.00</temp>
<bpm>0</bpm>
<rpm>0.00</rpm>
</extensions>
</trkpt>
<trkpt lat="30.621889114" lon="34.815208435">
<ele>802.8</ele>
<time>2013-11-22T06:50:13Z</time>
<speed>2.920000</speed>
<extensions>
<speed>2.9</speed>
<temp>0.00</temp>
<bpm>0</bpm>
<rpm>0.00</rpm>
</extensions>
</trkpt>
<trkpt lat="30.623180389" lon="34.815715790">
<ele>799.2</ele>
<time>2013-11-22T06:51:43Z</time>
<speed>3.910000</speed>
<extensions>
<speed>3.9</speed>
<temp>0.00</temp>
<bpm>0</bpm>
<rpm>0.00</rpm>
</extensions>
</trkpt>
<trkpt lat="30.623477936" lon="34.816204071">
<ele>789.4</ele>
<time>2013-11-22T06:51:58Z</time>
<speed>3.430000</speed>
<extensions>
<speed>3.4</speed>
<temp>0.00</temp>
<bpm>0</bpm>
<rpm>0.00</rpm>
</extensions>
</trkpt>
<trkpt lat="30.624834061" lon="34.816902161">
<ele>804.0</ele>
<time>2013-11-22T06:52:43Z</time>
<speed>3.880000</speed>
<extensions>
<speed>3.9</speed>
<temp>0.00</temp>
<bpm>0</bpm>
<rpm>0.00</rpm>
</extensions>
</trkpt>
<trkpt lat="30.625467300" lon="34.817646027">
<ele>799.3</ele>
<time>2013-11-22T06:53:08Z</time>
<speed>4.190000</speed>
<extensions>
<speed>4.2</speed>
<temp>0.00</temp>
<bpm>0</bpm>
<rpm>0.00</rpm>
</extensions>
</trkpt>
<trkpt lat="30.625690460" lon="34.818149567">
<ele>792.0</ele>
<time>2013-11-22T06:53:23Z</time>
<speed>3.680000</speed>
<extensions>
<speed>3.7</speed>
<temp>0.00</temp>
<bpm>0</bpm>
<rpm>0.00</rpm>
</extensions>
</trkpt>
<trkpt lat="30.627597809" lon="34.819801331">
<ele>783.4</ele>
<time>2013-11-22T06:54:38Z</time>
<speed>3.480000</speed>
<extensions>
<speed>3.5</speed>
<temp>0.00</temp>
<bpm>0</bpm>
<rpm>0.00</rpm>
</extensions>
</trkpt>
<trkpt lat="30.628017426" lon="34.819862366">
<ele>793.6</ele>
<time>2013-11-22T06:54:53Z</time>
<speed>3.620000</speed>
<extensions>
<speed>3.6</speed>
<temp>0.00</temp>
<bpm>0</bpm>
<rpm>0.00</rpm>
</extensions>
</trkpt>
<trkpt lat="30.628606796" lon="34.820415497">
<ele>787.7</ele>
<time>2013-11-22T06:55:23Z</time>
<speed>1.310000</speed>
<extensions>
<speed>1.3</speed>
<temp>0.00</temp>
<bpm>0</bpm>
<rpm>0.00</rpm>
</extensions>
</trkpt>
<trkpt lat="30.629308701" lon="34.820644379">
<ele>787.3</ele>
<time>2013-11-22T06:56:13Z</time>
<speed>3.100000</speed>
<extensions>
<speed>3.1</speed>
<temp>0.00</temp>
<bpm>0</bpm>
<rpm>0.00</rpm>
</extensions>
</trkpt>
<trkpt lat="30.629358292" lon="34.819568634">
<ele>787.8</ele>
<time>2013-11-22T06:56:43Z</time>
<speed>1.970000</speed>
<extensions>
<speed>2.0</speed>
<temp>0.00</temp>
<bpm>0</bpm>
<rpm>0.00</rpm>
</extensions>
</trkpt>
<trkpt lat="30.628816605" lon="34.818782806">
<ele>789.6</ele>
<time>2013-11-22T06:57:28Z</time>
<speed>2.110000</speed>
<extensions>
<speed>2.1</speed>
<temp>0.00</temp>
<bpm>0</bpm>
<rpm>0.00</rpm>
</extensions>
</trkpt>
<trkpt lat="30.629667282" lon="34.818733215">
<ele>792.8</ele>
<time>2013-11-22T06:58:18Z</time>
<speed>1.540000</speed>
<extensions>
<speed>1.5</speed>
<temp>0.00</temp>
<bpm>0</bpm>
<rpm>0.00</rpm>
</extensions>
</trkpt>
<trkpt lat="30.630189896" lon="34.819366455">
<ele>797.2</ele>
<time>2013-11-22T06:59:08Z</time>
<speed>1.540000</speed>
<extensions>
<speed>1.5</speed>
<temp>0.00</temp>
<bpm>0</bpm>
<rpm>0.00</rpm>
</extensions>
</trkpt>
<trkpt lat="30.630247116" lon="34.819828033">
<ele>796.9</ele>
<time>2013-11-22T06:59:28Z</time>
<speed>3.110000</speed>
<extensions>
<speed>3.1</speed>
<temp>0.00</temp>
<bpm>0</bpm>
<rpm>0.00</rpm>
</extensions>
</trkpt>
<trkpt lat="30.630750656" lon="34.819869995">
<ele>796.4</ele>
<time>2013-11-22T06:59:48Z</time>
<speed>3.130000</speed>
<extensions>
<speed>3.1</speed>
<temp>0.00</temp>
<bpm>0</bpm>
<rpm>0.00</rpm>
</extensions>
</trkpt>
<trkpt lat="30.631484985" lon="34.820213318">
<ele>796.4</ele>
<time>2013-11-22T07:00:23Z</time>
<speed>2.610000</speed>
<extensions>
<speed>2.6</speed>
<temp>0.00</temp>
<bpm>0</bpm>
<rpm>0.00</rpm>
</extensions>
</trkpt>
<trkpt lat="30.632219315" lon="34.820755005">
<ele>795.3</ele>
<time>2013-11-22T07:01:03Z</time>
<speed>3.880000</speed>
<extensions>
<speed>3.9</speed>
<temp>0.00</temp>
<bpm>0</bpm>
<rpm>0.00</rpm>
</extensions>
</trkpt>
<trkpt lat="30.633373260" lon="34.820972443">
<ele>795.1</ele>
<time>2013-11-22T07:01:43Z</time>
<speed>3.390000</speed>
<extensions>
<speed>3.4</speed>
<temp>0.00</temp>
<bpm>0</bpm>
<rpm>0.00</rpm>
</extensions>
</trkpt>
<trkpt lat="30.634843826" lon="34.820606232">
<ele>794.4</ele>
<time>2013-11-22T07:02:28Z</time>
<speed>3.780000</speed>
<extensions>
<speed>3.8</speed>
<temp>0.00</temp>
<bpm>0</bpm>
<rpm>0.00</rpm>
</extensions>
</trkpt>
<trkpt lat="30.635505676" lon="34.821006775">
<ele>793.1</ele>
<time>2013-11-22T07:02:48Z</time>
<speed>5.100000</speed>
<extensions>
<speed>5.1</speed>
<temp>0.00</temp>
<bpm>0</bpm>
<rpm>0.00</rpm>
</extensions>
</trkpt>
<trkpt lat="30.636188507" lon="34.821735382">
<ele>791.3</ele>
<time>2013-11-22T07:03:08Z</time>
<speed>4.470000</speed>
<extensions>
<speed>4.5</speed>
<temp>0.00</temp>
<bpm>0</bpm>
<rpm>0.00</rpm>
</extensions>
</trkpt>
<trkpt lat="30.637973785" lon="34.822551727">
<ele>788.1</ele>
<time>2013-11-22T07:03:53Z</time>
<speed>3.540000</speed>
<extensions>
<speed>3.5</speed>
<temp>0.00</temp>
<bpm>0</bpm>
<rpm>0.00</rpm>
</extensions>
</trkpt>
<trkpt lat="30.638387680" lon="34.823173523">
<ele>789.6</ele>
<time>2013-11-22T07:04:13Z</time>
<speed>3.540000</speed>
<extensions>
<speed>3.5</speed>
<temp>0.00</temp>
<bpm>0</bpm>
<rpm>0.00</rpm>
</extensions>
</trkpt>
<trkpt lat="30.640384674" lon="34.825016022">
<ele>778.8</ele>
<time>2013-11-22T07:04:58Z</time>
<speed>3.800000</speed>
<extensions>
<speed>3.8</speed>
<temp>0.00</temp>
<bpm>0</bpm>
<rpm>0.00</rpm>
</extensions>
</trkpt>
<trkpt lat="30.641006470" lon="34.826019287">
<ele>779.5</ele>
<time>2013-11-22T07:12:38Z</time>
<speed>2.680000</speed>
<extensions>
<speed>2.7</speed>
<temp>0.00</temp>
<bpm>0</bpm>
<rpm>0.00</rpm>
</extensions>
</trkpt>
<trkpt lat="30.641590118" lon="34.826293945">
<ele>782.8</ele>
<time>2013-11-22T07:13:13Z</time>
<speed>1.910000</speed>
<extensions>
<speed>1.9</speed>
<temp>0.00</temp>
<bpm>0</bpm>
<rpm>0.00</rpm>
</extensions>
</trkpt>
<trkpt lat="30.642669678" lon="34.827400208">
<ele>779.9</ele>
<time>2013-11-22T07:14:23Z</time>
<speed>4.530000</speed>
<extensions>
<speed>4.5</speed>
<temp>0.00</temp>
<bpm>0</bpm>
<rpm>0.00</rpm>
</extensions>
</trkpt>
<trkpt lat="30.643014908" lon="34.828338623">
<ele>779.0</ele>
<time>2013-11-22T07:14:48Z</time>
<speed>3.440000</speed>
<extensions>
<speed>3.4</speed>
<temp>0.00</temp>
<bpm>0</bpm>
<rpm>0.00</rpm>
</extensions>
</trkpt>
<trkpt lat="30.643409729" lon="34.828907013">
<ele>779.1</ele>
<time>2013-11-22T07:15:13Z</time>
<speed>2.130000</speed>
<extensions>
<speed>2.1</speed>
<temp>0.00</temp>
<bpm>0</bpm>
<rpm>0.00</rpm>
</extensions>
</trkpt>
<trkpt lat="30.643810272" lon="34.830497742">
<ele>772.8</ele>
<time>2013-11-22T07:15:58Z</time>
<speed>4.530000</speed>
<extensions>
<speed>4.5</speed>
<temp>0.00</temp>
<bpm>0</bpm>
<rpm>0.00</rpm>
</extensions>
</trkpt>
<trkpt lat="30.645223618" lon="34.832214355">
<ele>768.6</ele>
<time>2013-11-22T07:16:43Z</time>
<speed>3.810000</speed>
<extensions>
<speed>3.8</speed>
<temp>0.00</temp>
<bpm>0</bpm>
<rpm>0.00</rpm>
</extensions>
</trkpt>
<trkpt lat="30.645685196" lon="34.834548950">
<ele>774.0</ele>
<time>2013-11-22T07:18:03Z</time>
<speed>2.120000</speed>
<extensions>
<speed>2.1</speed>
<temp>0.00</temp>
<bpm>0</bpm>
<rpm>0.00</rpm>
</extensions>
</trkpt>
<trkpt lat="30.646183014" lon="34.835796356">
<ele>778.0</ele>
<time>2013-11-22T07:19:38Z</time>
<speed>0.020000</speed>
<extensions>
<speed>0.0</speed>
<temp>0.00</temp>
<bpm>0</bpm>
<rpm>0.00</rpm>
</extensions>
</trkpt>
<trkpt lat="30.646762848" lon="34.838794708">
<ele>765.9</ele>
<time>2013-11-22T07:22:03Z</time>
<speed>3.790000</speed>
<extensions>
<speed>3.8</speed>
<temp>0.00</temp>
<bpm>0</bpm>
<rpm>0.00</rpm>
</extensions>
</trkpt>
<trkpt lat="30.647970200" lon="34.840705872">
<ele>760.6</ele>
<time>2013-11-22T07:23:03Z</time>
<speed>4.390000</speed>
<extensions>
<speed>4.4</speed>
<temp>0.00</temp>
<bpm>0</bpm>
<rpm>0.00</rpm>
</extensions>
</trkpt>
<trkpt lat="30.649103165" lon="34.841815948">
<ele>757.6</ele>
<time>2013-11-22T07:28:13Z</time>
<speed>2.840000</speed>
<extensions>
<speed>2.8</speed>
<temp>0.00</temp>
<bpm>0</bpm>
<rpm>0.00</rpm>
</extensions>
</trkpt>
<trkpt lat="30.652303696" lon="34.842838287">
<ele>766.6</ele>
<time>2013-11-22T07:30:18Z</time>
<speed>1.720000</speed>
<extensions>
<speed>1.7</speed>
<temp>0.00</temp>
<bpm>0</bpm>
<rpm>0.00</rpm>
</extensions>
</trkpt>
<trkpt lat="30.653795242" lon="34.842887878">
<ele>767.6</ele>
<time>2013-11-22T07:31:18Z</time>
<speed>4.410000</speed>
<extensions>
<speed>4.4</speed>
<temp>0.00</temp>
<bpm>0</bpm>
<rpm>0.00</rpm>
</extensions>
</trkpt>
<trkpt lat="30.654319763" lon="34.843158722">
<ele>763.7</ele>
<time>2013-11-22T07:31:38Z</time>
<speed>1.850000</speed>
<extensions>
<speed>1.8</speed>
<temp>0.00</temp>
<bpm>0</bpm>
<rpm>0.00</rpm>
</extensions>
</trkpt>
<trkpt lat="30.654523849" lon="34.843570709">
<ele>761.7</ele>
<time>2013-11-22T07:31:53Z</time>
<speed>3.290000</speed>
<extensions>
<speed>3.3</speed>
<temp>0.00</temp>
<bpm>0</bpm>
<rpm>0.00</rpm>
</extensions>
</trkpt>
<trkpt lat="30.654880524" lon="34.843727112">
<ele>756.8</ele>
<time>2013-11-22T07:32:18Z</time>
<speed>2.170000</speed>
<extensions>
<speed>2.2</speed>
<temp>0.00</temp>
<bpm>0</bpm>
<rpm>0.00</rpm>
</extensions>
</trkpt>
<trkpt lat="30.656127930" lon="34.843772888">
<ele>754.8</ele>
<time>2013-11-22T07:32:53Z</time>
<speed>4.230000</speed>
<extensions>
<speed>4.2</speed>
<temp>0.00</temp>
<bpm>0</bpm>
<rpm>0.00</rpm>
</extensions>
</trkpt>
<trkpt lat="30.656721115" lon="34.844234467">
<ele>750.3</ele>
<time>2013-11-22T07:33:08Z</time>
<speed>5.700000</speed>
<extensions>
<speed>5.7</speed>
<temp>0.00</temp>
<bpm>0</bpm>
<rpm>0.00</rpm>
</extensions>
</trkpt>
<trkpt lat="30.657308578" lon="34.845172882">
<ele>745.8</ele>
<time>2013-11-22T07:35:08Z</time>
<speed>4.960000</speed>
<extensions>
<speed>5.0</speed>
<temp>0.00</temp>
<bpm>0</bpm>
<rpm>0.00</rpm>
</extensions>
</trkpt>
<trkpt lat="30.658771515" lon="34.846218109">
<ele>742.8</ele>
<time>2013-11-22T07:35:53Z</time>
<speed>2.810000</speed>
<extensions>
<speed>2.8</speed>
<temp>0.00</temp>
<bpm>0</bpm>
<rpm>0.00</rpm>
</extensions>
</trkpt>
<trkpt lat="30.659421921" lon="34.846939087">
<ele>739.5</ele>
<time>2013-11-22T07:36:18Z</time>
<speed>4.290000</speed>
<extensions>
<speed>4.3</speed>
<temp>0.00</temp>
<bpm>0</bpm>
<rpm>0.00</rpm>
</extensions>
</trkpt>
<trkpt lat="30.660907745" lon="34.847339630">
<ele>738.6</ele>
<time>2013-11-22T07:36:53Z</time>
<speed>4.750000</speed>
<extensions>
<speed>4.8</speed>
<temp>0.00</temp>
<bpm>0</bpm>
<rpm>0.00</rpm>
</extensions>
</trkpt>
<trkpt lat="30.661844254" lon="34.847076416">
<ele>734.6</ele>
<time>2013-11-22T07:37:18Z</time>
<speed>4.170000</speed>
<extensions>
<speed>4.2</speed>
<temp>0.00</temp>
<bpm>0</bpm>
<rpm>0.00</rpm>
</extensions>
</trkpt>
<trkpt lat="30.662553787" lon="34.847373962">
<ele>735.7</ele>
<time>2013-11-22T07:37:53Z</time>
<speed>2.020000</speed>
<extensions>
<speed>2.0</speed>
<temp>0.00</temp>
<bpm>0</bpm>
<rpm>0.00</rpm>
</extensions>
</trkpt>
<trkpt lat="30.662189484" lon="34.849193573">
<ele>733.1</ele>
<time>2013-11-22T07:39:38Z</time>
<speed>2.360000</speed>
<extensions>
<speed>2.4</speed>
<temp>0.00</temp>
<bpm>0</bpm>
<rpm>0.00</rpm>
</extensions>
</trkpt>
<trkpt lat="30.661981583" lon="34.849399567">
<ele>735.6</ele>
<time>2013-11-22T07:39:48Z</time>
<speed>2.190000</speed>
<extensions>
<speed>2.2</speed>
<temp>0.00</temp>
<bpm>0</bpm>
<rpm>0.00</rpm>
</extensions>
</trkpt>
<trkpt lat="30.662061691" lon="34.849662781">
<ele>733.4</ele>
<time>2013-11-22T07:39:58Z</time>
<speed>2.950000</speed>
<extensions>
<speed>2.9</speed>
<temp>0.00</temp>
<bpm>0</bpm>
<rpm>0.00</rpm>
</extensions>
</trkpt>
<trkpt lat="30.661838531" lon="34.850185394">
<ele>733.2</ele>
<time>2013-11-22T07:40:18Z</time>
<speed>2.220000</speed>
<extensions>
<speed>2.2</speed>
<temp>0.00</temp>
<bpm>0</bpm>
<rpm>0.00</rpm>
</extensions>
</trkpt>
<trkpt lat="30.661436081" lon="34.850589752">
<ele>733.4</ele>
<time>2013-11-22T07:40:43Z</time>
<speed>1.410000</speed>
<extensions>
<speed>1.4</speed>
<temp>0.00</temp>
<bpm>0</bpm>
<rpm>0.00</rpm>
</extensions>
</trkpt>
<trkpt lat="30.661443710" lon="34.850990295">
<ele>731.9</ele>
<time>2013-11-22T07:41:28Z</time>
<speed>2.490000</speed>
<extensions>
<speed>2.5</speed>
<temp>0.00</temp>
<bpm>0</bpm>
<rpm>0.00</rpm>
</extensions>
</trkpt>
<trkpt lat="30.660230637" lon="34.854904175">
<ele>724.1</ele>
<time>2013-11-22T07:42:58Z</time>
<speed>3.260000</speed>
<extensions>
<speed>3.3</speed>
<temp>0.00</temp>
<bpm>0</bpm>
<rpm>0.00</rpm>
</extensions>
</trkpt>
<trkpt lat="30.659641266" lon="34.855545044">
<ele>724.3</ele>
<time>2013-11-22T07:43:23Z</time>
<speed>4.510000</speed>
<extensions>
<speed>4.5</speed>
<temp>0.00</temp>
<bpm>0</bpm>
<rpm>0.00</rpm>
</extensions>
</trkpt>
<trkpt lat="30.658552170" lon="34.855758667">
<ele>725.0</ele>
<time>2013-11-22T07:44:23Z</time>
<speed>1.520000</speed>
<extensions>
<speed>1.5</speed>
<temp>0.00</temp>
<bpm>0</bpm>
<rpm>0.00</rpm>
</extensions>
</trkpt>
<trkpt lat="30.658481598" lon="34.857925415">
<ele>728.4</ele>
<time>2013-11-22T07:45:18Z</time>
<speed>2.970000</speed>
<extensions>
<speed>3.0</speed>
<temp>0.00</temp>
<bpm>0</bpm>
<rpm>0.00</rpm>
</extensions>
</trkpt>
<trkpt lat="30.659883499" lon="34.860561371">
<ele>739.5</ele>
<time>2013-11-22T07:47:13Z</time>
<speed>2.290000</speed>
<extensions>
<speed>2.3</speed>
<temp>0.00</temp>
<bpm>0</bpm>
<rpm>0.00</rpm>
</extensions>
</trkpt>
<trkpt lat="30.660753250" lon="34.860713959">
<ele>736.5</ele>
<time>2013-11-22T07:47:43Z</time>
<speed>6.110000</speed>
<extensions>
<speed>6.1</speed>
<temp>0.00</temp>
<bpm>0</bpm>
<rpm>0.00</rpm>
</extensions>
</trkpt>
<trkpt lat="30.661241531" lon="34.861217499">
<ele>733.5</ele>
<time>2013-11-22T07:48:03Z</time>
<speed>0.030000</speed>
<extensions>
<speed>0.0</speed>
<temp>0.00</temp>
<bpm>0</bpm>
<rpm>0.00</rpm>
</extensions>
</trkpt>
<trkpt lat="30.661123276" lon="34.861816406">
<ele>732.0</ele>
<time>2013-11-22T07:48:38Z</time>
<speed>2.480000</speed>
<extensions>
<speed>2.5</speed>
<temp>0.00</temp>
<bpm>0</bpm>
<rpm>0.00</rpm>
</extensions>
</trkpt>
<trkpt lat="30.661207199" lon="34.862537384">
<ele>729.9</ele>
<time>2013-11-22T07:48:53Z</time>
<speed>4.410000</speed>
<extensions>
<speed>4.4</speed>
<temp>0.00</temp>
<bpm>0</bpm>
<rpm>0.00</rpm>
</extensions>
</trkpt>
<trkpt lat="30.661672592" lon="34.864486694">
<ele>729.1</ele>
<time>2013-11-22T07:49:43Z</time>
<speed>2.920000</speed>
<extensions>
<speed>2.9</speed>
<temp>0.00</temp>
<bpm>0</bpm>
<rpm>0.00</rpm>
</extensions>
</trkpt>
<trkpt lat="30.662961960" lon="34.866447449">
<ele>737.5</ele>
<time>2013-11-22T07:51:18Z</time>
<speed>2.700000</speed>
<extensions>
<speed>2.7</speed>
<temp>0.00</temp>
<bpm>0</bpm>
<rpm>0.00</rpm>
</extensions>
</trkpt>
<trkpt lat="30.663732529" lon="34.868980408">
<ele>746.3</ele>
<time>2013-11-22T07:53:28Z</time>
<speed>3.030000</speed>
<extensions>
<speed>3.0</speed>
<temp>0.00</temp>
<bpm>0</bpm>
<rpm>0.00</rpm>
</extensions>
</trkpt>
<trkpt lat="30.663539886" lon="34.870414734">
<ele>746.7</ele>
<time>2013-11-22T07:54:33Z</time>
<speed>3.370000</speed>
<extensions>
<speed>3.4</speed>
<temp>0.00</temp>
<bpm>0</bpm>
<rpm>0.00</rpm>
</extensions>
</trkpt>
<trkpt lat="30.663864136" lon="34.871212006">
<ele>746.8</ele>
<time>2013-11-22T07:55:13Z</time>
<speed>1.520000</speed>
<extensions>
<speed>1.5</speed>
<temp>0.00</temp>
<bpm>0</bpm>
<rpm>0.00</rpm>
</extensions>
</trkpt>
<trkpt lat="30.664007187" lon="34.872390747">
<ele>745.8</ele>
<time>2013-11-22T07:55:53Z</time>
<speed>3.460000</speed>
<extensions>
<speed>3.5</speed>
<temp>0.00</temp>
<bpm>0</bpm>
<rpm>0.00</rpm>
</extensions>
</trkpt>
<trkpt lat="30.664329529" lon="34.873092651">
<ele>743.8</ele>
<time>2013-11-22T07:56:18Z</time>
<speed>1.130000</speed>
<extensions>
<speed>1.1</speed>
<temp>0.00</temp>
<bpm>0</bpm>
<rpm>0.00</rpm>
</extensions>
</trkpt>
<trkpt lat="30.663785934" lon="34.873638153">
<ele>701.5</ele>
<time>2013-11-22T07:57:33Z</time>
<speed>0.040000</speed>
<extensions>
<speed>0.0</speed>
<temp>0.00</temp>
<bpm>0</bpm>
<rpm>0.00</rpm>
</extensions>
</trkpt>
<trkpt lat="30.664382935" lon="34.873107910">
<ele>743.5</ele>
<time>2013-11-22T08:18:13Z</time>
<speed>3.180000</speed>
<extensions>
<speed>3.2</speed>
<temp>0.00</temp>
<bpm>0</bpm>
<rpm>0.00</rpm>
</extensions>
</trkpt>
<trkpt lat="30.664634705" lon="34.873767853">
<ele>740.0</ele>
<time>2013-11-22T08:19:03Z</time>
<speed>1.260000</speed>
<extensions>
<speed>1.3</speed>
<temp>0.00</temp>
<bpm>0</bpm>
<rpm>0.00</rpm>
</extensions>
</trkpt>
<trkpt lat="30.665283203" lon="34.874683380">
<ele>735.3</ele>
<time>2013-11-22T08:19:28Z</time>
<speed>5.140000</speed>
<extensions>
<speed>5.1</speed>
<temp>0.00</temp>
<bpm>0</bpm>
<rpm>0.00</rpm>
</extensions>
</trkpt>
<trkpt lat="30.665620804" lon="34.876136780">
<ele>730.3</ele>
<time>2013-11-22T08:20:13Z</time>
<speed>2.240000</speed>
<extensions>
<speed>2.2</speed>
<temp>0.00</temp>
<bpm>0</bpm>
<rpm>0.00</rpm>
</extensions>
</trkpt>
<trkpt lat="30.665588379" lon="34.876968384">
<ele>729.4</ele>
<time>2013-11-22T08:20:43Z</time>
<speed>3.230000</speed>
<extensions>
<speed>3.2</speed>
<temp>0.00</temp>
<bpm>0</bpm>
<rpm>0.00</rpm>
</extensions>
</trkpt>
<trkpt lat="30.665863037" lon="34.877296448">
<ele>727.8</ele>
<time>2013-11-22T08:20:58Z</time>
<speed>2.750000</speed>
<extensions>
<speed>2.7</speed>
<temp>0.00</temp>
<bpm>0</bpm>
<rpm>0.00</rpm>
</extensions>
</trkpt>
<trkpt lat="30.665969849" lon="34.877708435">
<ele>728.0</ele>
<time>2013-11-22T08:21:18Z</time>
<speed>1.430000</speed>
<extensions>
<speed>1.4</speed>
<temp>0.00</temp>
<bpm>0</bpm>
<rpm>0.00</rpm>
</extensions>
</trkpt>
<trkpt lat="30.665676117" lon="34.878036499">
<ele>725.4</ele>
<time>2013-11-22T08:21:58Z</time>
<speed>0.110000</speed>
<extensions>
<speed>0.1</speed>
<temp>0.00</temp>
<bpm>0</bpm>
<rpm>0.00</rpm>
</extensions>
</trkpt>
<trkpt lat="30.665973663" lon="34.878162384">
<ele>731.2</ele>
<time>2013-11-22T08:22:33Z</time>
<speed>1.640000</speed>
<extensions>
<speed>1.6</speed>
<temp>0.00</temp>
<bpm>0</bpm>
<rpm>0.00</rpm>
</extensions>
</trkpt>
<trkpt lat="30.666547775" lon="34.878986359">
<ele>734.8</ele>
<time>2013-11-22T08:23:18Z</time>
<speed>2.250000</speed>
<extensions>
<speed>2.3</speed>
<temp>0.00</temp>
<bpm>0</bpm>
<rpm>0.00</rpm>
</extensions>
</trkpt>
<trkpt lat="30.666606903" lon="34.880115509">
<ele>733.8</ele>
<time>2013-11-22T08:24:03Z</time>
<speed>1.280000</speed>
<extensions>
<speed>1.3</speed>
<temp>0.00</temp>
<bpm>0</bpm>
<rpm>0.00</rpm>
</extensions>
</trkpt>
<trkpt lat="30.666784286" lon="34.880619049">
<ele>731.0</ele>
<time>2013-11-22T08:24:43Z</time>
<speed>2.380000</speed>
<extensions>
<speed>2.4</speed>
<temp>0.00</temp>
<bpm>0</bpm>
<rpm>0.00</rpm>
</extensions>
</trkpt>
<trkpt lat="30.668495178" lon="34.882148743">
<ele>738.0</ele>
<time>2013-11-22T08:26:18Z</time>
<speed>0.010000</speed>
<extensions>
<speed>0.0</speed>
<temp>0.00</temp>
<bpm>0</bpm>
<rpm>0.00</rpm>
</extensions>
</trkpt>
<trkpt lat="30.669019699" lon="34.884723663">
<ele>732.6</ele>
<time>2013-11-22T08:27:48Z</time>
<speed>2.990000</speed>
<extensions>
<speed>3.0</speed>
<temp>0.00</temp>
<bpm>0</bpm>
<rpm>0.00</rpm>
</extensions>
</trkpt>
<trkpt lat="30.669454575" lon="34.886135101">
<ele>730.5</ele>
<time>2013-11-22T08:28:33Z</time>
<speed>3.170000</speed>
<extensions>
<speed>3.2</speed>
<temp>0.00</temp>
<bpm>0</bpm>
<rpm>0.00</rpm>
</extensions>
</trkpt>
<trkpt lat="30.670711517" lon="34.887989044">
<ele>703.4</ele>
<time>2013-11-22T08:30:13Z</time>
<speed>0.450000</speed>
<extensions>
<speed>0.5</speed>
<temp>0.00</temp>
<bpm>0</bpm>
<rpm>0.00</rpm>
</extensions>
</trkpt>
<trkpt lat="30.672136307" lon="34.888423920">
<ele>731.5</ele>
<time>2013-11-22T08:30:58Z</time>
<speed>3.220000</speed>
<extensions>
<speed>3.2</speed>
<temp>0.00</temp>
<bpm>0</bpm>
<rpm>0.00</rpm>
</extensions>
</trkpt>
<trkpt lat="30.672872543" lon="34.889034271">
<ele>730.7</ele>
<time>2013-11-22T08:31:23Z</time>
<speed>4.520000</speed>
<extensions>
<speed>4.5</speed>
<temp>0.00</temp>
<bpm>0</bpm>
<rpm>0.00</rpm>
</extensions>
</trkpt>
<trkpt lat="30.672788620" lon="34.890937805">
<ele>725.8</ele>
<time>2013-11-22T08:32:13Z</time>
<speed>3.570000</speed>
<extensions>
<speed>3.6</speed>
<temp>0.00</temp>
<bpm>0</bpm>
<rpm>0.00</rpm>
</extensions>
</trkpt>
<trkpt lat="30.673244476" lon="34.891979218">
<ele>726.6</ele>
<time>2013-11-22T08:32:43Z</time>
<speed>4.430000</speed>
<extensions>
<speed>4.4</speed>
<temp>0.00</temp>
<bpm>0</bpm>
<rpm>0.00</rpm>
</extensions>
</trkpt>
<trkpt lat="30.673244476" lon="34.892398834">
<ele>713.0</ele>
<time>2013-11-22T08:33:08Z</time>
<speed>4.540000</speed>
<extensions>
<speed>4.5</speed>
<temp>0.00</temp>
<bpm>0</bpm>
<rpm>0.00</rpm>
</extensions>
</trkpt>
<trkpt lat="30.673831940" lon="34.894500732">
<ele>723.4</ele>
<time>2013-11-22T08:34:23Z</time>
<speed>6.030000</speed>
<extensions>
<speed>6.0</speed>
<temp>0.00</temp>
<bpm>0</bpm>
<rpm>0.00</rpm>
</extensions>
</trkpt>
<trkpt lat="30.674489975" lon="34.894477844">
<ele>719.7</ele>
<time>2013-11-22T08:34:33Z</time>
<speed>8.160000</speed>
<extensions>
<speed>8.2</speed>
<temp>0.00</temp>
<bpm>0</bpm>
<rpm>0.00</rpm>
</extensions>
</trkpt>
<trkpt lat="30.676082611" lon="34.895061493">
<ele>709.6</ele>
<time>2013-11-22T08:34:53Z</time>
<speed>8.010000</speed>
<extensions>
<speed>8.0</speed>
<temp>0.00</temp>
<bpm>0</bpm>
<rpm>0.00</rpm>
</extensions>
</trkpt>
<trkpt lat="30.678339005" lon="34.897323608">
<ele>698.3</ele>
<time>2013-11-22T08:36:03Z</time>
<speed>4.720000</speed>
<extensions>
<speed>4.7</speed>
<temp>0.00</temp>
<bpm>0</bpm>
<rpm>0.00</rpm>
</extensions>
</trkpt>
<trkpt lat="30.679821014" lon="34.899181366">
<ele>692.0</ele>
<time>2013-11-22T08:36:58Z</time>
<speed>4.620000</speed>
<extensions>
<speed>4.6</speed>
<temp>0.00</temp>
<bpm>0</bpm>
<rpm>0.00</rpm>
</extensions>
</trkpt>
<trkpt lat="30.681203842" lon="34.900165558">
<ele>690.4</ele>
<time>2013-11-22T08:37:38Z</time>
<speed>3.480000</speed>
<extensions>
<speed>3.5</speed>
<temp>0.00</temp>
<bpm>0</bpm>
<rpm>0.00</rpm>
</extensions>
</trkpt>
<trkpt lat="30.681972504" lon="34.900257111">
<ele>686.4</ele>
<time>2013-11-22T08:40:08Z</time>
<speed>3.600000</speed>
<extensions>
<speed>3.6</speed>
<temp>0.00</temp>
<bpm>0</bpm>
<rpm>0.00</rpm>
</extensions>
</trkpt>
<trkpt lat="30.682872772" lon="34.901260376">
<ele>687.9</ele>
<time>2013-11-22T08:40:53Z</time>
<speed>4.100000</speed>
<extensions>
<speed>4.1</speed>
<temp>0.00</temp>
<bpm>0</bpm>
<rpm>0.00</rpm>
</extensions>
</trkpt>
<trkpt lat="30.683191299" lon="34.901153564">
<ele>687.5</ele>
<time>2013-11-22T08:41:03Z</time>
<speed>3.450000</speed>
<extensions>
<speed>3.5</speed>
<temp>0.00</temp>
<bpm>0</bpm>
<rpm>0.00</rpm>
</extensions>
</trkpt>
<trkpt lat="30.683927536" lon="34.901554108">
<ele>682.3</ele>
<time>2013-11-22T08:41:28Z</time>
<speed>5.470000</speed>
<extensions>
<speed>5.5</speed>
<temp>0.00</temp>
<bpm>0</bpm>
<rpm>0.00</rpm>
</extensions>
</trkpt>
<trkpt lat="30.684242249" lon="34.902702332">
<ele>676.2</ele>
<time>2013-11-22T08:41:48Z</time>
<speed>3.710000</speed>
<extensions>
<speed>3.7</speed>
<temp>0.00</temp>
<bpm>0</bpm>
<rpm>0.00</rpm>
</extensions>
</trkpt>
<trkpt lat="30.684703827" lon="34.903423309">
<ele>673.5</ele>
<time>2013-11-22T08:42:03Z</time>
<speed>6.310000</speed>
<extensions>
<speed>6.3</speed>
<temp>0.00</temp>
<bpm>0</bpm>
<rpm>0.00</rpm>
</extensions>
</trkpt>
<trkpt lat="30.684675217" lon="34.904979706">
<ele>672.3</ele>
<time>2013-11-22T08:42:38Z</time>
<speed>4.670000</speed>
<extensions>
<speed>4.7</speed>
<temp>0.00</temp>
<bpm>0</bpm>
<rpm>0.00</rpm>
</extensions>
</trkpt>
<trkpt lat="30.685987473" lon="34.906742096">
<ele>661.1</ele>
<time>2013-11-22T08:43:33Z</time>
<speed>5.100000</speed>
<extensions>
<speed>5.1</speed>
<temp>0.00</temp>
<bpm>0</bpm>
<rpm>0.00</rpm>
</extensions>
</trkpt>
<trkpt lat="30.686693192" lon="34.908687592">
<ele>659.3</ele>
<time>2013-11-22T08:44:33Z</time>
<speed>2.580000</speed>
<extensions>
<speed>2.6</speed>
<temp>0.00</temp>
<bpm>0</bpm>
<rpm>0.00</rpm>
</extensions>
</trkpt>
<trkpt lat="30.687599182" lon="34.909305573">
<ele>663.0</ele>
<time>2013-11-22T08:45:03Z</time>
<speed>5.020000</speed>
<extensions>
<speed>5.0</speed>
<temp>0.00</temp>
<bpm>0</bpm>
<rpm>0.00</rpm>
</extensions>
</trkpt>
<trkpt lat="30.688337326" lon="34.909301758">
<ele>655.2</ele>
<time>2013-11-22T08:45:18Z</time>
<speed>7.250000</speed>
<extensions>
<speed>7.3</speed>
<temp>0.00</temp>
<bpm>0</bpm>
<rpm>0.00</rpm>
</extensions>
</trkpt>
<trkpt lat="30.688817978" lon="34.909076691">
<ele>652.7</ele>
<time>2013-11-22T08:45:33Z</time>
<speed>3.600000</speed>
<extensions>
<speed>3.6</speed>
<temp>0.00</temp>
<bpm>0</bpm>
<rpm>0.00</rpm>
</extensions>
</trkpt>
<trkpt lat="30.689853668" lon="34.907779694">
<ele>650.1</ele>
<time>2013-11-22T08:49:28Z</time>
<speed>3.650000</speed>
<extensions>
<speed>3.7</speed>
<temp>0.00</temp>
<bpm>0</bpm>
<rpm>0.00</rpm>
</extensions>
</trkpt>
<trkpt lat="30.690639496" lon="34.908096313">
<ele>651.6</ele>
<time>2013-11-22T08:49:53Z</time>
<speed>2.120000</speed>
<extensions>
<speed>2.1</speed>
<temp>0.00</temp>
<bpm>0</bpm>
<rpm>0.00</rpm>
</extensions>
</trkpt>
<trkpt lat="30.690946579" lon="34.907970428">
<ele>647.8</ele>
<time>2013-11-22T08:50:13Z</time>
<speed>1.820000</speed>
<extensions>
<speed>1.8</speed>
<temp>0.00</temp>
<bpm>0</bpm>
<rpm>0.00</rpm>
</extensions>
</trkpt>
<trkpt lat="30.691526413" lon="34.908603668">
<ele>651.3</ele>
<time>2013-11-22T08:50:48Z</time>
<speed>2.230000</speed>
<extensions>
<speed>2.2</speed>
<temp>0.00</temp>
<bpm>0</bpm>
<rpm>0.00</rpm>
</extensions>
</trkpt>
<trkpt lat="30.691963196" lon="34.908790588">
<ele>653.6</ele>
<time>2013-11-22T08:51:03Z</time>
<speed>3.640000</speed>
<extensions>
<speed>3.6</speed>
<temp>0.00</temp>
<bpm>0</bpm>
<rpm>0.00</rpm>
</extensions>
</trkpt>
<trkpt lat="30.692716599" lon="34.908664703">
<ele>647.6</ele>
<time>2013-11-22T08:51:28Z</time>
<speed>3.160000</speed>
<extensions>
<speed>3.2</speed>
<temp>0.00</temp>
<bpm>0</bpm>
<rpm>0.00</rpm>
</extensions>
</trkpt>
<trkpt lat="30.694135666" lon="34.909023285">
<ele>647.2</ele>
<time>2013-11-22T08:52:13Z</time>
<speed>3.030000</speed>
<extensions>
<speed>3.0</speed>
<temp>0.00</temp>
<bpm>0</bpm>
<rpm>0.00</rpm>
</extensions>
</trkpt>
<trkpt lat="30.694574356" lon="34.909355164">
<ele>642.6</ele>
<time>2013-11-22T08:52:33Z</time>
<speed>3.440000</speed>
<extensions>
<speed>3.4</speed>
<temp>0.00</temp>
<bpm>0</bpm>
<rpm>0.00</rpm>
</extensions>
</trkpt>
<trkpt lat="30.694538116" lon="34.910995483">
<ele>638.0</ele>
<time>2013-11-22T08:53:18Z</time>
<speed>4.090000</speed>
<extensions>
<speed>4.1</speed>
<temp>0.00</temp>
<bpm>0</bpm>
<rpm>0.00</rpm>
</extensions>
</trkpt>
<trkpt lat="30.694030762" lon="34.912521362">
<ele>634.6</ele>
<time>2013-11-22T08:53:58Z</time>
<speed>3.400000</speed>
<extensions>
<speed>3.4</speed>
<temp>0.00</temp>
<bpm>0</bpm>
<rpm>0.00</rpm>
</extensions>
</trkpt>
<trkpt lat="30.693923950" lon="34.913764954">
<ele>633.6</ele>
<time>2013-11-22T08:54:33Z</time>
<speed>3.770000</speed>
<extensions>
<speed>3.8</speed>
<temp>0.00</temp>
<bpm>0</bpm>
<rpm>0.00</rpm>
</extensions>
</trkpt>
<trkpt lat="30.693515778" lon="34.914230347">
<ele>639.6</ele>
<time>2013-11-22T08:55:13Z</time>
<speed>1.550000</speed>
<extensions>
<speed>1.5</speed>
<temp>0.00</temp>
<bpm>0</bpm>
<rpm>0.00</rpm>
</extensions>
</trkpt>
<trkpt lat="30.692611694" lon="34.914276123">
<ele>653.3</ele>
<time>2013-11-22T08:56:33Z</time>
<speed>0.010000</speed>
<extensions>
<speed>0.0</speed>
<temp>0.00</temp>
<bpm>0</bpm>
<rpm>0.00</rpm>
</extensions>
</trkpt>
<trkpt lat="30.691955566" lon="34.914623260">
<ele>652.0</ele>
<time>2013-11-22T08:57:33Z</time>
<speed>1.620000</speed>
<extensions>
<speed>1.6</speed>
<temp>0.00</temp>
<bpm>0</bpm>
<rpm>0.00</rpm>
</extensions>
</trkpt>
<trkpt lat="30.691780090" lon="34.915344238">
<ele>657.4</ele>
<time>2013-11-22T08:58:28Z</time>
<speed>1.450000</speed>
<extensions>
<speed>1.4</speed>
<temp>0.00</temp>
<bpm>0</bpm>
<rpm>0.00</rpm>
</extensions>
</trkpt>
<trkpt lat="30.691862106" lon="34.916030884">
<ele>666.2</ele>
<time>2013-11-22T08:59:13Z</time>
<speed>1.340000</speed>
<extensions>
<speed>1.3</speed>
<temp>0.00</temp>
<bpm>0</bpm>
<rpm>0.00</rpm>
</extensions>
</trkpt>
<trkpt lat="30.691375732" lon="34.916889191">
<ele>670.2</ele>
<time>2013-11-22T09:01:38Z</time>
<speed>1.440000</speed>
<extensions>
<speed>1.4</speed>
<temp>0.00</temp>
<bpm>0</bpm>
<rpm>0.00</rpm>
</extensions>
</trkpt>
<trkpt lat="30.690744400" lon="34.916625977">
<ele>675.3</ele>
<time>2013-11-22T09:02:23Z</time>
<speed>1.670000</speed>
<extensions>
<speed>1.7</speed>
<temp>0.00</temp>
<bpm>0</bpm>
<rpm>0.00</rpm>
</extensions>
</trkpt>
<trkpt lat="30.690248489" lon="34.916885376">
<ele>676.3</ele>
<time>2013-11-22T09:02:53Z</time>
<speed>1.820000</speed>
<extensions>
<speed>1.8</speed>
<temp>0.00</temp>
<bpm>0</bpm>
<rpm>0.00</rpm>
</extensions>
</trkpt>
<trkpt lat="30.689928055" lon="34.917266846">
<ele>677.7</ele>
<time>2013-11-22T09:03:18Z</time>
<speed>2.050000</speed>
<extensions>
<speed>2.1</speed>
<temp>0.00</temp>
<bpm>0</bpm>
<rpm>0.00</rpm>
</extensions>
</trkpt>
<trkpt lat="30.689844131" lon="34.917938232">
<ele>669.3</ele>
<time>2013-11-22T09:03:48Z</time>
<speed>3.330000</speed>
<extensions>
<speed>3.3</speed>
<temp>0.00</temp>
<bpm>0</bpm>
<rpm>0.00</rpm>
</extensions>
</trkpt>
<trkpt lat="30.690530777" lon="34.918251038">
<ele>678.4</ele>
<time>2013-11-22T09:04:13Z</time>
<speed>3.640000</speed>
<extensions>
<speed>3.6</speed>
<temp>0.00</temp>
<bpm>0</bpm>
<rpm>0.00</rpm>
</extensions>
</trkpt>
<trkpt lat="30.690496445" lon="34.919086456">
<ele>681.9</ele>
<time>2013-11-22T09:04:53Z</time>
<speed>2.230000</speed>
<extensions>
<speed>2.2</speed>
<temp>0.00</temp>
<bpm>0</bpm>
<rpm>0.00</rpm>
</extensions>
</trkpt>
<trkpt lat="30.690198898" lon="34.919631958">
<ele>688.1</ele>
<time>2013-11-22T09:05:18Z</time>
<speed>2.470000</speed>
<extensions>
<speed>2.5</speed>
<temp>0.00</temp>
<bpm>0</bpm>
<rpm>0.00</rpm>
</extensions>
</trkpt>
<trkpt lat="30.689563751" lon="34.919975281">
<ele>690.6</ele>
<time>2013-11-22T09:05:53Z</time>
<speed>1.880000</speed>
<extensions>
<speed>1.9</speed>
<temp>0.00</temp>
<bpm>0</bpm>
<rpm>0.00</rpm>
</extensions>
</trkpt>
<trkpt lat="30.689264297" lon="34.920471191">
<ele>689.5</ele>
<time>2013-11-22T09:06:23Z</time>
<speed>2.280000</speed>
<extensions>
<speed>2.3</speed>
<temp>0.00</temp>
<bpm>0</bpm>
<rpm>0.00</rpm>
</extensions>
</trkpt>
<trkpt lat="30.689258575" lon="34.920696259">
<ele>688.1</ele>
<time>2013-11-22T09:06:33Z</time>
<speed>2.070000</speed>
<extensions>
<speed>2.1</speed>
<temp>0.00</temp>
<bpm>0</bpm>
<rpm>0.00</rpm>
</extensions>
</trkpt>
<trkpt lat="30.689645767" lon="34.921180725">
<ele>682.0</ele>
<time>2013-11-22T09:07:03Z</time>
<speed>3.060000</speed>
<extensions>
<speed>3.1</speed>
<temp>0.00</temp>
<bpm>0</bpm>
<rpm>0.00</rpm>
</extensions>
</trkpt>
<trkpt lat="30.689842224" lon="34.922042847">
<ele>678.0</ele>
<time>2013-11-22T09:10:48Z</time>
<speed>3.330000</speed>
<extensions>
<speed>3.3</speed>
<temp>0.00</temp>
<bpm>0</bpm>
<rpm>0.00</rpm>
</extensions>
</trkpt>
<trkpt lat="30.689823151" lon="34.922302246">
<ele>679.2</ele>
<time>2013-11-22T09:10:58Z</time>
<speed>2.930000</speed>
<extensions>
<speed>2.9</speed>
<temp>0.00</temp>
<bpm>0</bpm>
<rpm>0.00</rpm>
</extensions>
</trkpt>
<trkpt lat="30.689483643" lon="34.922424316">
<ele>675.5</ele>
<time>2013-11-22T09:11:08Z</time>
<speed>4.030000</speed>
<extensions>
<speed>4.0</speed>
<temp>0.00</temp>
<bpm>0</bpm>
<rpm>0.00</rpm>
</extensions>
</trkpt>
<trkpt lat="30.689315796" lon="34.922885895">
<ele>672.8</ele>
<time>2013-11-22T09:11:23Z</time>
<speed>3.210000</speed>
<extensions>
<speed>3.2</speed>
<temp>0.00</temp>
<bpm>0</bpm>
<rpm>0.00</rpm>
</extensions>
</trkpt>
<trkpt lat="30.689680099" lon="34.923854828">
<ele>673.1</ele>
<time>2013-11-22T09:11:53Z</time>
<speed>3.000000</speed>
<extensions>
<speed>3.0</speed>
<temp>0.00</temp>
<bpm>0</bpm>
<rpm>0.00</rpm>
</extensions>
</trkpt>
<trkpt lat="30.690078735" lon="34.924015045">
<ele>672.4</ele>
<time>2013-11-22T09:12:08Z</time>
<speed>2.780000</speed>
<extensions>
<speed>2.8</speed>
<temp>0.00</temp>
<bpm>0</bpm>
<rpm>0.00</rpm>
</extensions>
</trkpt>
<trkpt lat="30.690332413" lon="34.924385071">
<ele>667.4</ele>
<time>2013-11-22T09:12:28Z</time>
<speed>3.930000</speed>
<extensions>
<speed>3.9</speed>
<temp>0.00</temp>
<bpm>0</bpm>
<rpm>0.00</rpm>
</extensions>
</trkpt>
<trkpt lat="30.691205978" lon="34.923961639">
<ele>663.2</ele>
<time>2013-11-22T09:13:08Z</time>
<speed>1.980000</speed>
<extensions>
<speed>2.0</speed>
<temp>0.00</temp>
<bpm>0</bpm>
<rpm>0.00</rpm>
</extensions>
</trkpt>
<trkpt lat="30.690835953" lon="34.924808502">
<ele>656.7</ele>
<time>2013-11-22T09:15:43Z</time>
<speed>2.910000</speed>
<extensions>
<speed>2.9</speed>
<temp>0.00</temp>
<bpm>0</bpm>
<rpm>0.00</rpm>
</extensions>
</trkpt>
<trkpt lat="30.690431595" lon="34.924919128">
<ele>657.6</ele>
<time>2013-11-22T09:16:03Z</time>
<speed>2.080000</speed>
<extensions>
<speed>2.1</speed>
<temp>0.00</temp>
<bpm>0</bpm>
<rpm>0.00</rpm>
</extensions>
</trkpt>
<trkpt lat="30.690469742" lon="34.925247192">
<ele>660.9</ele>
<time>2013-11-22T09:16:18Z</time>
<speed>0.040000</speed>
<extensions>
<speed>0.0</speed>
<temp>0.00</temp>
<bpm>0</bpm>
<rpm>0.00</rpm>
</extensions>
</trkpt>
<trkpt lat="30.692270279" lon="34.925682068">
<ele>652.6</ele>
<time>2013-11-22T09:20:08Z</time>
<speed>0.020000</speed>
<extensions>
<speed>0.0</speed>
<temp>0.00</temp>
<bpm>0</bpm>
<rpm>0.00</rpm>
</extensions>
</trkpt>
<trkpt lat="30.691205978" lon="34.926681519">
<ele>662.9</ele>
<time>2013-11-22T09:22:13Z</time>
<speed>1.170000</speed>
<extensions>
<speed>1.2</speed>
<temp>0.00</temp>
<bpm>0</bpm>
<rpm>0.00</rpm>
</extensions>
</trkpt>
<trkpt lat="30.689857483" lon="34.927383423">
<ele>672.6</ele>
<time>2013-11-22T09:24:13Z</time>
<speed>4.260000</speed>
<extensions>
<speed>4.3</speed>
<temp>0.00</temp>
<bpm>0</bpm>
<rpm>0.00</rpm>
</extensions>
</trkpt>
<trkpt lat="30.689458847" lon="34.928043365">
<ele>674.3</ele>
<time>2013-11-22T09:24:48Z</time>
<speed>3.560000</speed>
<extensions>
<speed>3.6</speed>
<temp>0.00</temp>
<bpm>0</bpm>
<rpm>0.00</rpm>
</extensions>
</trkpt>
<trkpt lat="30.688545227" lon="34.928653717">
<ele>652.3</ele>
<time>2013-11-22T09:26:13Z</time>
<extensions>
<speed>0.0</speed>
<temp>0.00</temp>
<bpm>0</bpm>
<rpm>0.00</rpm>
</extensions>
</trkpt>
<trkpt lat="30.689453125" lon="34.928092957">
<ele>674.6</ele>
<time>2013-11-22T09:28:28Z</time>
<speed>2.170000</speed>
<extensions>
<speed>2.2</speed>
<temp>0.00</temp>
<bpm>0</bpm>
<rpm>0.00</rpm>
</extensions>
</trkpt>
<trkpt lat="30.689929962" lon="34.927371979">
<ele>672.2</ele>
<time>2013-11-22T09:29:18Z</time>
<speed>1.830000</speed>
<extensions>
<speed>1.8</speed>
<temp>0.00</temp>
<bpm>0</bpm>
<rpm>0.00</rpm>
</extensions>
</trkpt>
<trkpt lat="30.691196442" lon="34.926727295">
<ele>662.5</ele>
<time>2013-11-22T09:30:13Z</time>
<speed>5.550000</speed>
<extensions>
<speed>5.5</speed>
<temp>0.00</temp>
<bpm>0</bpm>
<rpm>0.00</rpm>
</extensions>
</trkpt>
<trkpt lat="30.692411423" lon="34.925666809">
<ele>652.0</ele>
<time>2013-11-22T09:30:48Z</time>
<speed>3.440000</speed>
<extensions>
<speed>3.4</speed>
<temp>0.00</temp>
<bpm>0</bpm>
<rpm>0.00</rpm>
</extensions>
</trkpt>
<trkpt lat="30.694566727" lon="34.926330566">
<ele>648.4</ele>
<time>2013-11-22T09:32:03Z</time>
<speed>7.090000</speed>
<extensions>
<speed>7.1</speed>
<temp>0.00</temp>
<bpm>0</bpm>
<rpm>0.00</rpm>
</extensions>
</trkpt>
<trkpt lat="30.696630478" lon="34.927188873">
<ele>644.2</ele>
<time>2013-11-22T09:32:43Z</time>
<speed>4.230000</speed>
<extensions>
<speed>4.2</speed>
<temp>0.00</temp>
<bpm>0</bpm>
<rpm>0.00</rpm>
</extensions>
</trkpt>
<trkpt lat="30.698091507" lon="34.927112579">
<ele>639.7</ele>
<time>2013-11-22T09:33:23Z</time>
<speed>0.250000</speed>
<extensions>
<speed>0.2</speed>
<temp>0.00</temp>
<bpm>0</bpm>
<rpm>0.00</rpm>
</extensions>
</trkpt>
<trkpt lat="30.698843002" lon="34.928092957">
<ele>639.8</ele>
<time>2013-11-22T09:34:23Z</time>
<speed>3.800000</speed>
<extensions>
<speed>3.8</speed>
<temp>0.00</temp>
<bpm>0</bpm>
<rpm>0.00</rpm>
</extensions>
</trkpt>
<trkpt lat="30.699350357" lon="34.928310394">
<ele>640.5</ele>
<time>2013-11-22T09:34:38Z</time>
<speed>3.470000</speed>
<extensions>
<speed>3.5</speed>
<temp>0.00</temp>
<bpm>0</bpm>
<rpm>0.00</rpm>
</extensions>
</trkpt>
<trkpt lat="30.699695587" lon="34.928878784">
<ele>641.1</ele>
<time>2013-11-22T09:35:08Z</time>
<speed>2.280000</speed>
<extensions>
<speed>2.3</speed>
<temp>0.00</temp>
<bpm>0</bpm>
<rpm>0.00</rpm>
</extensions>
</trkpt>
<trkpt lat="30.699506760" lon="34.929744720">
<ele>641.0</ele>
<time>2013-11-22T09:35:38Z</time>
<speed>0.980000</speed>
<extensions>
<speed>1.0</speed>
<temp>0.00</temp>
<bpm>0</bpm>
<rpm>0.00</rpm>
</extensions>
</trkpt>
<trkpt lat="30.700685501" lon="34.929683685">
<ele>641.4</ele>
<time>2013-11-22T09:36:33Z</time>
<speed>2.820000</speed>
<extensions>
<speed>2.8</speed>
<temp>0.00</temp>
<bpm>0</bpm>
<rpm>0.00</rpm>
</extensions>
</trkpt>
<trkpt lat="30.701328278" lon="34.929431915">
<ele>643.5</ele>
<time>2013-11-22T09:37:03Z</time>
<speed>1.950000</speed>
<extensions>
<speed>1.9</speed>
<temp>0.00</temp>
<bpm>0</bpm>
<rpm>0.00</rpm>
</extensions>
</trkpt>
<trkpt lat="30.701644897" lon="34.928878784">
<ele>644.5</ele>
<time>2013-11-22T09:37:28Z</time>
<speed>2.620000</speed>
<extensions>
<speed>2.6</speed>
<temp>0.00</temp>
<bpm>0</bpm>
<rpm>0.00</rpm>
</extensions>
</trkpt>
<trkpt lat="30.702217102" lon="34.928482056">
<ele>647.3</ele>
<time>2013-11-22T09:37:58Z</time>
<speed>2.650000</speed>
<extensions>
<speed>2.6</speed>
<temp>0.00</temp>
<bpm>0</bpm>
<rpm>0.00</rpm>
</extensions>
</trkpt>
<trkpt lat="30.702472687" lon="34.928550720">
<ele>648.8</ele>
<time>2013-11-22T09:38:13Z</time>
<speed>1.910000</speed>
<extensions>
<speed>1.9</speed>
<temp>0.00</temp>
<bpm>0</bpm>
<rpm>0.00</rpm>
</extensions>
</trkpt>
<trkpt lat="30.702800751" lon="34.928997040">
<ele>651.1</ele>
<time>2013-11-22T09:38:43Z</time>
<speed>1.890000</speed>
<extensions>
<speed>1.9</speed>
<temp>0.00</temp>
<bpm>0</bpm>
<rpm>0.00</rpm>
</extensions>
</trkpt>
<trkpt lat="30.703083038" lon="34.929031372">
<ele>653.7</ele>
<time>2013-11-22T09:39:03Z</time>
<speed>2.070000</speed>
<extensions>
<speed>2.1</speed>
<temp>0.00</temp>
<bpm>0</bpm>
<rpm>0.00</rpm>
</extensions>
</trkpt>
<trkpt lat="30.702947617" lon="34.929477692">
<ele>653.4</ele>
<time>2013-11-22T09:39:18Z</time>
<speed>3.090000</speed>
<extensions>
<speed>3.1</speed>
<temp>0.00</temp>
<bpm>0</bpm>
<rpm>0.00</rpm>
</extensions>
</trkpt>
<trkpt lat="30.703350067" lon="34.929901123">
<ele>661.0</ele>
<time>2013-11-22T09:39:43Z</time>
<speed>2.350000</speed>
<extensions>
<speed>2.4</speed>
<temp>0.00</temp>
<bpm>0</bpm>
<rpm>0.00</rpm>
</extensions>
</trkpt>
<trkpt lat="30.703411102" lon="34.930912018">
<ele>670.9</ele>
<time>2013-11-22T09:41:03Z</time>
<speed>1.500000</speed>
<extensions>
<speed>1.5</speed>
<temp>0.00</temp>
<bpm>0</bpm>
<rpm>0.00</rpm>
</extensions>
</trkpt>
<trkpt lat="30.703577042" lon="34.931350708">
<ele>674.7</ele>
<time>2013-11-22T09:41:28Z</time>
<speed>1.540000</speed>
<extensions>
<speed>1.5</speed>
<temp>0.00</temp>
<bpm>0</bpm>
<rpm>0.00</rpm>
</extensions>
</trkpt>
<trkpt lat="30.702949524" lon="34.931793213">
<ele>680.5</ele>
<time>2013-11-22T09:42:23Z</time>
<speed>1.200000</speed>
<extensions>
<speed>1.2</speed>
<temp>0.00</temp>
<bpm>0</bpm>
<rpm>0.00</rpm>
</extensions>
</trkpt>
<trkpt lat="30.702039719" lon="34.931800842">
<ele>685.1</ele>
<time>2013-11-22T09:43:48Z</time>
<speed>2.270000</speed>
<extensions>
<speed>2.3</speed>
<temp>0.00</temp>
<bpm>0</bpm>
<rpm>0.00</rpm>
</extensions>
</trkpt>
<trkpt lat="30.700931549" lon="34.932418823">
<ele>694.0</ele>
<time>2013-11-22T09:45:48Z</time>
<speed>0.020000</speed>
<extensions>
<speed>0.0</speed>
<temp>0.00</temp>
<bpm>0</bpm>
<rpm>0.00</rpm>
</extensions>
</trkpt>
<trkpt lat="30.700544357" lon="34.932914734">
<ele>696.4</ele>
<time>2013-11-22T09:46:48Z</time>
<speed>1.300000</speed>
<extensions>
<speed>1.3</speed>
<temp>0.00</temp>
<bpm>0</bpm>
<rpm>0.00</rpm>
</extensions>
</trkpt>
<trkpt lat="30.699609756" lon="34.933353424">
<ele>699.9</ele>
<time>2013-11-22T09:49:13Z</time>
<speed>1.260000</speed>
<extensions>
<speed>1.3</speed>
<temp>0.00</temp>
<bpm>0</bpm>
<rpm>0.00</rpm>
</extensions>
</trkpt>
<trkpt lat="30.699281693" lon="34.934070587">
<ele>702.2</ele>
<time>2013-11-22T09:50:08Z</time>
<speed>1.980000</speed>
<extensions>
<speed>2.0</speed>
<temp>0.00</temp>
<bpm>0</bpm>
<rpm>0.00</rpm>
</extensions>
</trkpt>
<trkpt lat="30.698566437" lon="34.934894562">
<ele>704.6</ele>
<time>2013-11-22T09:50:58Z</time>
<speed>2.620000</speed>
<extensions>
<speed>2.6</speed>
<temp>0.00</temp>
<bpm>0</bpm>
<rpm>0.00</rpm>
</extensions>
</trkpt>
<trkpt lat="30.697309494" lon="34.935874939">
<ele>708.6</ele>
<time>2013-11-22T09:52:13Z</time>
<speed>2.960000</speed>
<extensions>
<speed>3.0</speed>
<temp>0.00</temp>
<bpm>0</bpm>
<rpm>0.00</rpm>
</extensions>
</trkpt>
<trkpt lat="30.697174072" lon="34.936569214">
<ele>710.4</ele>
<time>2013-11-22T09:52:43Z</time>
<speed>2.410000</speed>
<extensions>
<speed>2.4</speed>
<temp>0.00</temp>
<bpm>0</bpm>
<rpm>0.00</rpm>
</extensions>
</trkpt>
<trkpt lat="30.696582794" lon="34.937065125">
<ele>714.2</ele>
<time>2013-11-22T09:53:28Z</time>
<speed>1.570000</speed>
<extensions>
<speed>1.6</speed>
<temp>0.00</temp>
<bpm>0</bpm>
<rpm>0.00</rpm>
</extensions>
</trkpt>
<trkpt lat="30.696029663" lon="34.937847137">
<ele>717.1</ele>
<time>2013-11-22T09:54:18Z</time>
<speed>2.460000</speed>
<extensions>
<speed>2.5</speed>
<temp>0.00</temp>
<bpm>0</bpm>
<rpm>0.00</rpm>
</extensions>
</trkpt>
<trkpt lat="30.694635391" lon="34.939010620">
<ele>719.5</ele>
<time>2013-11-22T09:57:33Z</time>
<speed>1.460000</speed>
<extensions>
<speed>1.5</speed>
<temp>0.00</temp>
<bpm>0</bpm>
<rpm>0.00</rpm>
</extensions>
</trkpt>
<trkpt lat="30.694446564" lon="34.940910339">
<ele>709.1</ele>
<time>2013-11-22T09:58:03Z</time>
<speed>3.200000</speed>
<extensions>
<speed>3.2</speed>
<temp>0.00</temp>
<bpm>0</bpm>
<rpm>0.00</rpm>
</extensions>
</trkpt>
<trkpt lat="30.693912506" lon="34.941436768">
<ele>708.3</ele>
<time>2013-11-22T09:58:38Z</time>
<speed>3.420000</speed>
<extensions>
<speed>3.4</speed>
<temp>0.00</temp>
<bpm>0</bpm>
<rpm>0.00</rpm>
</extensions>
</trkpt>
<trkpt lat="30.693838120" lon="34.943180084">
<ele>696.3</ele>
<time>2013-11-22T10:00:23Z</time>
<speed>1.380000</speed>
<extensions>
<speed>1.4</speed>
<temp>0.00</temp>
<bpm>0</bpm>
<rpm>0.00</rpm>
</extensions>
</trkpt>
<trkpt lat="30.693456650" lon="34.943958282">
<ele>685.0</ele>
<time>2013-11-22T10:01:48Z</time>
<speed>2.430000</speed>
<extensions>
<speed>2.4</speed>
<temp>0.00</temp>
<bpm>0</bpm>
<rpm>0.00</rpm>
</extensions>
</trkpt>
<trkpt lat="30.693456650" lon="34.944370270">
<ele>685.0</ele>
<time>2013-11-22T10:01:58Z</time>
<speed>2.670000</speed>
<extensions>
<speed>2.7</speed>
<temp>0.00</temp>
<bpm>0</bpm>
<rpm>0.00</rpm>
</extensions>
</trkpt>
<trkpt lat="30.693264008" lon="34.944316864">
<ele>672.8</ele>
<time>2013-11-22T10:02:18Z</time>
<speed>0.010000</speed>
<extensions>
<speed>0.0</speed>
<temp>0.00</temp>
<bpm>0</bpm>
<rpm>0.00</rpm>
</extensions>
</trkpt>
<trkpt lat="30.693828583" lon="34.944488525">
<ele>686.0</ele>
<time>2013-11-22T10:03:18Z</time>
<speed>1.810000</speed>
<extensions>
<speed>1.8</speed>
<temp>0.00</temp>
<bpm>0</bpm>
<rpm>0.00</rpm>
</extensions>
</trkpt>
<trkpt lat="30.694473267" lon="34.945728302">
<ele>690.3</ele>
<time>2013-11-22T10:04:13Z</time>
<speed>2.450000</speed>
<extensions>
<speed>2.4</speed>
<temp>0.00</temp>
<bpm>0</bpm>
<rpm>0.00</rpm>
</extensions>
</trkpt>
<trkpt lat="30.695287704" lon="34.946430206">
<ele>682.6</ele>
<time>2013-11-22T10:04:38Z</time>
<speed>5.610000</speed>
<extensions>
<speed>5.6</speed>
<temp>0.00</temp>
<bpm>0</bpm>
<rpm>0.00</rpm>
</extensions>
</trkpt>
<trkpt lat="30.695669174" lon="34.947685242">
<ele>676.2</ele>
<time>2013-11-22T10:05:08Z</time>
<speed>1.700000</speed>
<extensions>
<speed>1.7</speed>
<temp>0.00</temp>
<bpm>0</bpm>
<rpm>0.00</rpm>
</extensions>
</trkpt>
<trkpt lat="30.695438385" lon="34.948364258">
<ele>681.3</ele>
<time>2013-11-22T10:06:08Z</time>
<speed>1.590000</speed>
<extensions>
<speed>1.6</speed>
<temp>0.00</temp>
<bpm>0</bpm>
<rpm>0.00</rpm>
</extensions>
</trkpt>
<trkpt lat="30.696338654" lon="34.948806763">
<ele>681.9</ele>
<time>2013-11-22T10:07:23Z</time>
<speed>1.950000</speed>
<extensions>
<speed>1.9</speed>
<temp>0.00</temp>
<bpm>0</bpm>
<rpm>0.00</rpm>
</extensions>
</trkpt>
<trkpt lat="30.696670532" lon="34.949378967">
<ele>681.3</ele>
<time>2013-11-22T10:07:43Z</time>
<speed>0.460000</speed>
<extensions>
<speed>0.5</speed>
<temp>0.00</temp>
<bpm>0</bpm>
<rpm>0.00</rpm>
</extensions>
</trkpt>
<trkpt lat="30.696893692" lon="34.950637817">
<ele>674.4</ele>
<time>2013-11-22T10:08:38Z</time>
<speed>4.700000</speed>
<extensions>
<speed>4.7</speed>
<temp>0.00</temp>
<bpm>0</bpm>
<rpm>0.00</rpm>
</extensions>
</trkpt>
<trkpt lat="30.697685242" lon="34.950691223">
<ele>673.2</ele>
<time>2013-11-22T10:08:58Z</time>
<speed>4.820000</speed>
<extensions>
<speed>4.8</speed>
<temp>0.00</temp>
<bpm>0</bpm>
<rpm>0.00</rpm>
</extensions>
</trkpt>
<trkpt lat="30.697948456" lon="34.950878143">
<ele>670.8</ele>
<time>2013-11-22T10:09:08Z</time>
<speed>4.160000</speed>
<extensions>
<speed>4.2</speed>
<temp>0.00</temp>
<bpm>0</bpm>
<rpm>0.00</rpm>
</extensions>
</trkpt>
<trkpt lat="30.698822021" lon="34.950794220">
<ele>662.8</ele>
<time>2013-11-22T10:09:23Z</time>
<speed>8.280000</speed>
<extensions>
<speed>8.3</speed>
<temp>0.00</temp>
<bpm>0</bpm>
<rpm>0.00</rpm>
</extensions>
</trkpt>
<trkpt lat="30.699623108" lon="34.951267242">
<ele>652.8</ele>
<time>2013-11-22T10:09:44Z</time>
<speed>0.030000</speed>
<extensions>
<speed>0.0</speed>
<temp>0.00</temp>
<bpm>0</bpm>
<rpm>0.00</rpm>
</extensions>
</trkpt>
<trkpt lat="30.699426651" lon="34.952209473">
<ele>647.4</ele>
<time>2013-11-22T10:55:09Z</time>
<speed>2.460000</speed>
<extensions>
<speed>2.5</speed>
<temp>0.00</temp>
<bpm>0</bpm>
<rpm>0.00</rpm>
</extensions>
</trkpt>
<trkpt lat="30.698938370" lon="34.952835083">
<ele>640.1</ele>
<time>2013-11-22T10:55:44Z</time>
<speed>3.420000</speed>
<extensions>
<speed>3.4</speed>
<temp>0.00</temp>
<bpm>0</bpm>
<rpm>0.00</rpm>
</extensions>
</trkpt>
<trkpt lat="30.698883057" lon="34.953254700">
<ele>637.1</ele>
<time>2013-11-22T10:55:54Z</time>
<speed>4.520000</speed>
<extensions>
<speed>4.5</speed>
<temp>0.00</temp>
<bpm>0</bpm>
<rpm>0.00</rpm>
</extensions>
</trkpt>
<trkpt lat="30.698493958" lon="34.953628540">
<ele>634.0</ele>
<time>2013-11-22T10:56:09Z</time>
<speed>3.360000</speed>
<extensions>
<speed>3.4</speed>
<temp>0.00</temp>
<bpm>0</bpm>
<rpm>0.00</rpm>
</extensions>
</trkpt>
<trkpt lat="30.697311401" lon="34.954193115">
<ele>628.6</ele>
<time>2013-11-22T10:56:54Z</time>
<speed>2.980000</speed>
<extensions>
<speed>3.0</speed>
<temp>0.00</temp>
<bpm>0</bpm>
<rpm>0.00</rpm>
</extensions>
</trkpt>
<trkpt lat="30.696069717" lon="34.954113007">
<ele>630.4</ele>
<time>2013-11-22T10:57:34Z</time>
<speed>2.340000</speed>
<extensions>
<speed>2.3</speed>
<temp>0.00</temp>
<bpm>0</bpm>
<rpm>0.00</rpm>
</extensions>
</trkpt>
<trkpt lat="30.695600510" lon="34.953914642">
<ele>632.6</ele>
<time>2013-11-22T10:58:04Z</time>
<speed>0.070000</speed>
<extensions>
<speed>0.1</speed>
<temp>0.00</temp>
<bpm>0</bpm>
<rpm>0.00</rpm>
</extensions>
</trkpt>
<trkpt lat="30.695331573" lon="34.953670502">
<ele>628.8</ele>
<time>2013-11-22T10:58:44Z</time>
<speed>0.850000</speed>
<extensions>
<speed>0.8</speed>
<temp>0.00</temp>
<bpm>0</bpm>
<rpm>0.00</rpm>
</extensions>
</trkpt>
<trkpt lat="30.695114136" lon="34.952228546">
<ele>598.8</ele>
<time>2013-11-22T10:59:44Z</time>
<speed>3.370000</speed>
<extensions>
<speed>3.4</speed>
<temp>0.00</temp>
<bpm>0</bpm>
<rpm>0.00</rpm>
</extensions>
</trkpt>
<trkpt lat="30.694583893" lon="34.952117920">
<ele>584.9</ele>
<time>2013-11-22T11:00:14Z</time>
<speed>1.780000</speed>
<extensions>
<speed>1.8</speed>
<temp>0.00</temp>
<bpm>0</bpm>
<rpm>0.00</rpm>
</extensions>
</trkpt>
<trkpt lat="30.694379807" lon="34.951740265">
<ele>579.7</ele>
<time>2013-11-22T11:00:34Z</time>
<speed>3.100000</speed>
<extensions>
<speed>3.1</speed>
<temp>0.00</temp>
<bpm>0</bpm>
<rpm>0.00</rpm>
</extensions>
</trkpt>
<trkpt lat="30.693883896" lon="34.951469421">
<ele>569.8</ele>
<time>2013-11-22T11:01:04Z</time>
<speed>0.040000</speed>
<extensions>
<speed>0.0</speed>
<temp>0.00</temp>
<bpm>0</bpm>
<rpm>0.00</rpm>
</extensions>
</trkpt>
<trkpt lat="30.693548203" lon="34.951522827">
<ele>565.3</ele>
<time>2013-11-22T11:02:29Z</time>
<speed>2.260000</speed>
<extensions>
<speed>2.3</speed>
<temp>0.00</temp>
<bpm>0</bpm>
<rpm>0.00</rpm>
</extensions>
</trkpt>
<trkpt lat="30.693069458" lon="34.951320648">
<ele>560.8</ele>
<time>2013-11-22T11:02:44Z</time>
<speed>3.620000</speed>
<extensions>
<speed>3.6</speed>
<temp>0.00</temp>
<bpm>0</bpm>
<rpm>0.00</rpm>
</extensions>
</trkpt>
<trkpt lat="30.693031311" lon="34.950702667">
<ele>563.4</ele>
<time>2013-11-22T11:03:04Z</time>
<speed>2.710000</speed>
<extensions>
<speed>2.7</speed>
<temp>0.00</temp>
<bpm>0</bpm>
<rpm>0.00</rpm>
</extensions>
</trkpt>
<trkpt lat="30.692640305" lon="34.950321198">
<ele>562.8</ele>
<time>2013-11-22T11:03:24Z</time>
<speed>2.870000</speed>
<extensions>
<speed>2.9</speed>
<temp>0.00</temp>
<bpm>0</bpm>
<rpm>0.00</rpm>
</extensions>
</trkpt>
<trkpt lat="30.690626144" lon="34.950954437">
<ele>548.8</ele>
<time>2013-11-22T11:03:59Z</time>
<speed>6.900000</speed>
<extensions>
<speed>6.9</speed>
<temp>0.00</temp>
<bpm>0</bpm>
<rpm>0.00</rpm>
</extensions>
</trkpt>
<trkpt lat="30.689088821" lon="34.950508118">
<ele>540.1</ele>
<time>2013-11-22T11:04:24Z</time>
<speed>7.520000</speed>
<extensions>
<speed>7.5</speed>
<temp>0.00</temp>
<bpm>0</bpm>
<rpm>0.00</rpm>
</extensions>
</trkpt>
<trkpt lat="30.687767029" lon="34.950370789">
<ele>534.0</ele>
<time>2013-11-22T11:04:44Z</time>
<speed>6.440000</speed>
<extensions>
<speed>6.4</speed>
<temp>0.00</temp>
<bpm>0</bpm>
<rpm>0.00</rpm>
</extensions>
</trkpt>
<trkpt lat="30.686754227" lon="34.949851990">
<ele>530.8</ele>
<time>2013-11-22T11:05:09Z</time>
<speed>4.570000</speed>
<extensions>
<speed>4.6</speed>
<temp>0.00</temp>
<bpm>0</bpm>
<rpm>0.00</rpm>
</extensions>
</trkpt>
<trkpt lat="30.686113358" lon="34.949802399">
<ele>528.6</ele>
<time>2013-11-22T11:05:24Z</time>
<speed>4.610000</speed>
<extensions>
<speed>4.6</speed>
<temp>0.00</temp>
<bpm>0</bpm>
<rpm>0.00</rpm>
</extensions>
</trkpt>
<trkpt lat="30.685775757" lon="34.949340820">
<ele>527.6</ele>
<time>2013-11-22T11:05:39Z</time>
<speed>2.610000</speed>
<extensions>
<speed>2.6</speed>
<temp>0.00</temp>
<bpm>0</bpm>
<rpm>0.00</rpm>
</extensions>
</trkpt>
<trkpt lat="30.685129166" lon="34.946537018">
<ele>529.4</ele>
<time>2013-11-22T11:08:14Z</time>
<speed>0.110000</speed>
<extensions>
<speed>0.1</speed>
<temp>0.00</temp>
<bpm>0</bpm>
<rpm>0.00</rpm>
</extensions>
</trkpt>
<trkpt lat="30.684923172" lon="34.946136475">
<ele>525.2</ele>
<time>2013-11-22T11:11:39Z</time>
<speed>6.350000</speed>
<extensions>
<speed>6.4</speed>
<temp>0.00</temp>
<bpm>0</bpm>
<rpm>0.00</rpm>
</extensions>
</trkpt>
<trkpt lat="30.684242249" lon="34.945259094">
<ele>520.2</ele>
<time>2013-11-22T11:12:04Z</time>
<speed>4.450000</speed>
<extensions>
<speed>4.5</speed>
<temp>0.00</temp>
<bpm>0</bpm>
<rpm>0.00</rpm>
</extensions>
</trkpt>
<trkpt lat="30.683547974" lon="34.944999695">
<ele>518.3</ele>
<time>2013-11-22T11:12:24Z</time>
<speed>3.710000</speed>
<extensions>
<speed>3.7</speed>
<temp>0.00</temp>
<bpm>0</bpm>
<rpm>0.00</rpm>
</extensions>
</trkpt>
<trkpt lat="30.682165146" lon="34.943988800">
<ele>515.1</ele>
<time>2013-11-22T11:13:09Z</time>
<speed>4.270000</speed>
<extensions>
<speed>4.3</speed>
<temp>0.00</temp>
<bpm>0</bpm>
<rpm>0.00</rpm>
</extensions>
</trkpt>
<trkpt lat="30.681015015" lon="34.942539215">
<ele>518.1</ele>
<time>2013-11-22T11:14:54Z</time>
<speed>6.320000</speed>
<extensions>
<speed>6.3</speed>
<temp>0.00</temp>
<bpm>0</bpm>
<rpm>0.00</rpm>
</extensions>
</trkpt>
<trkpt lat="30.680095673" lon="34.941726685">
<ele>511.4</ele>
<time>2013-11-22T11:15:14Z</time>
<speed>0.170000</speed>
<extensions>
<speed>0.2</speed>
<temp>0.00</temp>
<bpm>0</bpm>
<rpm>0.00</rpm>
</extensions>
</trkpt>
<trkpt lat="30.680376053" lon="34.940673828">
<ele>511.9</ele>
<time>2013-11-22T11:16:39Z</time>
<speed>3.000000</speed>
<extensions>
<speed>3.0</speed>
<temp>0.00</temp>
<bpm>0</bpm>
<rpm>0.00</rpm>
</extensions>
</trkpt>
<trkpt lat="30.681262970" lon="34.939441681">
<ele>514.0</ele>
<time>2013-11-22T11:17:44Z</time>
<speed>2.410000</speed>
<extensions>
<speed>2.4</speed>
<temp>0.00</temp>
<bpm>0</bpm>
<rpm>0.00</rpm>
</extensions>
</trkpt>
<trkpt lat="30.681043625" lon="34.938625336">
<ele>515.8</ele>
<time>2013-11-22T11:18:14Z</time>
<speed>3.300000</speed>
<extensions>
<speed>3.3</speed>
<temp>0.00</temp>
<bpm>0</bpm>
<rpm>0.00</rpm>
</extensions>
</trkpt>
<trkpt lat="30.680631638" lon="34.938125610">
<ele>515.2</ele>
<time>2013-11-22T11:18:54Z</time>
<speed>1.400000</speed>
<extensions>
<speed>1.4</speed>
<temp>0.00</temp>
<bpm>0</bpm>
<rpm>0.00</rpm>
</extensions>
</trkpt>
<trkpt lat="30.680919647" lon="34.937759399">
<ele>516.6</ele>
<time>2013-11-22T11:19:09Z</time>
<speed>4.230000</speed>
<extensions>
<speed>4.2</speed>
<temp>0.00</temp>
<bpm>0</bpm>
<rpm>0.00</rpm>
</extensions>
</trkpt>
<trkpt lat="30.681425095" lon="34.936298370">
<ele>515.3</ele>
<time>2013-11-22T11:20:09Z</time>
<speed>3.380000</speed>
<extensions>
<speed>3.4</speed>
<temp>0.00</temp>
<bpm>0</bpm>
<rpm>0.00</rpm>
</extensions>
</trkpt>
<trkpt lat="30.680604935" lon="34.935024261">
<ele>515.8</ele>
<time>2013-11-22T11:20:54Z</time>
<speed>3.960000</speed>
<extensions>
<speed>4.0</speed>
<temp>0.00</temp>
<bpm>0</bpm>
<rpm>0.00</rpm>
</extensions>
</trkpt>
<trkpt lat="30.680025101" lon="34.933685303">
<ele>514.4</ele>
<time>2013-11-22T11:21:44Z</time>
<speed>0.690000</speed>
<extensions>
<speed>0.7</speed>
<temp>0.00</temp>
<bpm>0</bpm>
<rpm>0.00</rpm>
</extensions>
</trkpt>
<trkpt lat="30.679592133" lon="34.933612823">
<ele>513.2</ele>
<time>2013-11-22T11:22:09Z</time>
<speed>4.650000</speed>
<extensions>
<speed>4.6</speed>
<temp>0.00</temp>
<bpm>0</bpm>
<rpm>0.00</rpm>
</extensions>
</trkpt>
<trkpt lat="30.678739548" lon="34.933048248">
<ele>509.7</ele>
<time>2013-11-22T11:22:49Z</time>
<speed>1.130000</speed>
<extensions>
<speed>1.1</speed>
<temp>0.00</temp>
<bpm>0</bpm>
<rpm>0.00</rpm>
</extensions>
</trkpt>
<trkpt lat="30.679225922" lon="34.932197571">
<ele>518.0</ele>
<time>2013-11-22T11:23:49Z</time>
<speed>2.020000</speed>
<extensions>
<speed>2.0</speed>
<temp>0.00</temp>
<bpm>0</bpm>
<rpm>0.00</rpm>
</extensions>
</trkpt>
<trkpt lat="30.679250717" lon="34.931888580">
<ele>520.2</ele>
<time>2013-11-22T11:24:04Z</time>
<speed>2.080000</speed>
<extensions>
<speed>2.1</speed>
<temp>0.00</temp>
<bpm>0</bpm>
<rpm>0.00</rpm>
</extensions>
</trkpt>
<trkpt lat="30.678552628" lon="34.931808472">
<ele>518.0</ele>
<time>2013-11-22T11:24:49Z</time>
<speed>3.280000</speed>
<extensions>
<speed>3.3</speed>
<temp>0.00</temp>
<bpm>0</bpm>
<rpm>0.00</rpm>
</extensions>
</trkpt>
<trkpt lat="30.678142548" lon="34.931106567">
<ele>512.6</ele>
<time>2013-11-22T11:25:09Z</time>
<speed>4.460000</speed>
<extensions>
<speed>4.5</speed>
<temp>0.00</temp>
<bpm>0</bpm>
<rpm>0.00</rpm>
</extensions>
</trkpt>
<trkpt lat="30.678567886" lon="34.930263519">
<ele>512.9</ele>
<time>2013-11-22T11:25:34Z</time>
<speed>5.520000</speed>
<extensions>
<speed>5.5</speed>
<temp>0.00</temp>
<bpm>0</bpm>
<rpm>0.00</rpm>
</extensions>
</trkpt>
<trkpt lat="30.678775787" lon="34.929218292">
<ele>516.7</ele>
<time>2013-11-22T11:26:09Z</time>
<speed>2.380000</speed>
<extensions>
<speed>2.4</speed>
<temp>0.00</temp>
<bpm>0</bpm>
<rpm>0.00</rpm>
</extensions>
</trkpt>
<trkpt lat="30.678602219" lon="34.928951263">
<ele>518.7</ele>
<time>2013-11-22T11:26:24Z</time>
<speed>2.960000</speed>
<extensions>
<speed>3.0</speed>
<temp>0.00</temp>
<bpm>0</bpm>
<rpm>0.00</rpm>
</extensions>
</trkpt>
<trkpt lat="30.677732468" lon="34.928756714">
<ele>515.0</ele>
<time>2013-11-22T11:26:49Z</time>
<speed>5.240000</speed>
<extensions>
<speed>5.2</speed>
<temp>0.00</temp>
<bpm>0</bpm>
<rpm>0.00</rpm>
</extensions>
</trkpt>
<trkpt lat="30.677633286" lon="34.928482056">
<ele>512.3</ele>
<time>2013-11-22T11:26:54Z</time>
<speed>4.900000</speed>
<extensions>
<speed>4.9</speed>
<temp>0.00</temp>
<bpm>0</bpm>
<rpm>0.00</rpm>
</extensions>
</trkpt>
<trkpt lat="30.678308487" lon="34.927959442">
<ele>514.1</ele>
<time>2013-11-22T11:27:39Z</time>
<speed>1.880000</speed>
<extensions>
<speed>1.9</speed>
<temp>0.00</temp>
<bpm>0</bpm>
<rpm>0.00</rpm>
</extensions>
</trkpt>
<trkpt lat="30.678466797" lon="34.927642822">
<ele>515.9</ele>
<time>2013-11-22T11:27:54Z</time>
<speed>2.130000</speed>
<extensions>
<speed>2.1</speed>
<temp>0.00</temp>
<bpm>0</bpm>
<rpm>0.00</rpm>
</extensions>
</trkpt>
<trkpt lat="30.678291321" lon="34.926956177">
<ele>516.4</ele>
<time>2013-11-22T11:28:24Z</time>
<speed>2.390000</speed>
<extensions>
<speed>2.4</speed>
<temp>0.00</temp>
<bpm>0</bpm>
<rpm>0.00</rpm>
</extensions>
</trkpt>
<trkpt lat="30.678665161" lon="34.926132202">
<ele>520.9</ele>
<time>2013-11-22T11:28:59Z</time>
<speed>2.730000</speed>
<extensions>
<speed>2.7</speed>
<temp>0.00</temp>
<bpm>0</bpm>
<rpm>0.00</rpm>
</extensions>
</trkpt>
<trkpt lat="30.678758621" lon="34.925376892">
<ele>522.9</ele>
<time>2013-11-22T11:29:44Z</time>
<speed>1.930000</speed>
<extensions>
<speed>1.9</speed>
<temp>0.00</temp>
<bpm>0</bpm>
<rpm>0.00</rpm>
</extensions>
</trkpt>
<trkpt lat="30.679159164" lon="34.924652100">
<ele>526.3</ele>
<time>2013-11-22T11:32:49Z</time>
<speed>1.590000</speed>
<extensions>
<speed>1.6</speed>
<temp>0.00</temp>
<bpm>0</bpm>
<rpm>0.00</rpm>
</extensions>
</trkpt>
<trkpt lat="30.676155090" lon="34.924575806">
<ele>511.6</ele>
<time>2013-11-22T11:34:04Z</time>
<speed>3.040000</speed>
<extensions>
<speed>3.0</speed>
<temp>0.00</temp>
<bpm>0</bpm>
<rpm>0.00</rpm>
</extensions>
</trkpt>
<trkpt lat="30.665800095" lon="34.925682068">
<ele>483.6</ele>
<time>2013-11-22T11:38:44Z</time>
<speed>2.300000</speed>
<extensions>
<speed>2.3</speed>
<temp>0.00</temp>
<bpm>0</bpm>
<rpm>0.00</rpm>
</extensions>
</trkpt>
<trkpt lat="30.660907745" lon="34.925609589">
<ele>475.3</ele>
<time>2013-11-22T11:40:34Z</time>
<speed>5.770000</speed>
<extensions>
<speed>5.8</speed>
<temp>0.00</temp>
<bpm>0</bpm>
<rpm>0.00</rpm>
</extensions>
</trkpt>
<trkpt lat="30.643674850" lon="34.921142578">
<ele>455.7</ele>
<time>2013-11-22T11:47:49Z</time>
<speed>4.870000</speed>
<extensions>
<speed>4.9</speed>
<temp>0.00</temp>
<bpm>0</bpm>
<rpm>0.00</rpm>
</extensions>
</trkpt>
<trkpt lat="30.639553070" lon="34.920829773">
<ele>449.8</ele>
<time>2013-11-22T11:49:24Z</time>
<speed>3.330000</speed>
<extensions>
<speed>3.3</speed>
<temp>0.00</temp>
<bpm>0</bpm>
<rpm>0.00</rpm>
</extensions>
</trkpt>
<trkpt lat="30.638008118" lon="34.920543671">
<ele>447.8</ele>
<time>2013-11-22T11:50:04Z</time>
<speed>5.450000</speed>
<extensions>
<speed>5.5</speed>
<temp>0.00</temp>
<bpm>0</bpm>
<rpm>0.00</rpm>
</extensions>
</trkpt>
<trkpt lat="30.637315750" lon="34.920669556">
<ele>448.2</ele>
<time>2013-11-22T11:50:24Z</time>
<speed>2.480000</speed>
<extensions>
<speed>2.5</speed>
<temp>0.00</temp>
<bpm>0</bpm>
<rpm>0.00</rpm>
</extensions>
</trkpt>
<trkpt lat="30.636007309" lon="34.920539856">
<ele>447.4</ele>
<time>2013-11-22T11:51:14Z</time>
<speed>4.940000</speed>
<extensions>
<speed>4.9</speed>
<temp>0.00</temp>
<bpm>0</bpm>
<rpm>0.00</rpm>
</extensions>
</trkpt>
<trkpt lat="30.622217178" lon="34.921150208">
<ele>432.7</ele>
<time>2013-11-22T11:59:24Z</time>
<speed>5.420000</speed>
<extensions>
<speed>5.4</speed>
<temp>0.00</temp>
<bpm>0</bpm>
<rpm>0.00</rpm>
</extensions>
</trkpt>
<trkpt lat="30.620883942" lon="34.920722961">
<ele>431.3</ele>
<time>2013-11-22T12:00:04Z</time>
<speed>3.890000</speed>
<extensions>
<speed>3.9</speed>
<temp>0.00</temp>
<bpm>0</bpm>
<rpm>0.00</rpm>
</extensions>
</trkpt>
<trkpt lat="30.620805740" lon="34.920597076">
<ele>431.4</ele>
<time>2013-11-22T12:00:09Z</time>
<speed>3.240000</speed>
<extensions>
<speed>3.2</speed>
<temp>0.00</temp>
<bpm>0</bpm>
<rpm>0.00</rpm>
</extensions>
</trkpt>
<trkpt lat="30.621006012" lon="34.920021057">
<ele>432.3</ele>
<time>2013-11-22T12:00:34Z</time>
<speed>1.270000</speed>
<extensions>
<speed>1.3</speed>
<temp>0.00</temp>
<bpm>0</bpm>
<rpm>0.00</rpm>
</extensions>
</trkpt>
<trkpt lat="30.620586395" lon="34.919818878">
<ele>432.5</ele>
<time>2013-11-22T12:00:54Z</time>
<speed>2.880000</speed>
<extensions>
<speed>2.9</speed>
<temp>0.00</temp>
<bpm>0</bpm>
<rpm>0.00</rpm>
</extensions>
</trkpt>
<trkpt lat="30.619907379" lon="34.919784546">
<ele>432.8</ele>
<time>2013-11-22T12:01:24Z</time>
<speed>0.790000</speed>
<extensions>
<speed>0.8</speed>
<temp>0.00</temp>
<bpm>0</bpm>
<rpm>0.00</rpm>
</extensions>
</trkpt>
<trkpt lat="30.619770050" lon="34.920120239">
<ele>434.2</ele>
<time>2013-11-22T12:45:29Z</time>
<extensions>
<speed>0.0</speed>
<temp>0.00</temp>
<bpm>0</bpm>
<rpm>0.00</rpm>
</extensions>
</trkpt>
<trkpt lat="30.619958878" lon="34.920455933">
<ele>432.6</ele>
<time>2013-11-22T12:48:04Z</time>
<speed>1.000000</speed>
<extensions>
<speed>1.0</speed>
<temp>0.00</temp>
<bpm>0</bpm>
<rpm>0.00</rpm>
</extensions>
</trkpt>
<trkpt lat="30.619316101" lon="34.920185089">
<ele>439.2</ele>
<time>2013-11-22T12:50:09Z</time>
<speed>1.540000</speed>
<extensions>
<speed>1.5</speed>
<temp>0.00</temp>
<bpm>0</bpm>
<rpm>0.00</rpm>
</extensions>
</trkpt>
<trkpt lat="30.618457794" lon="34.920143127">
<ele>427.3</ele>
<time>2013-11-22T12:50:44Z</time>
<speed>2.960000</speed>
<extensions>
<speed>3.0</speed>
<temp>0.00</temp>
<bpm>0</bpm>
<rpm>0.00</rpm>
</extensions>
</trkpt>
<trkpt lat="30.618356705" lon="34.919963837">
<ele>426.2</ele>
<time>2013-11-22T12:50:49Z</time>
<speed>4.040000</speed>
<extensions>
<speed>4.0</speed>
<temp>0.00</temp>
<bpm>0</bpm>
<rpm>0.00</rpm>
</extensions>
</trkpt>
<trkpt lat="30.618036270" lon="34.918708801">
<ele>425.1</ele>
<time>2013-11-22T12:51:24Z</time>
<speed>2.580000</speed>
<extensions>
<speed>2.6</speed>
<temp>0.00</temp>
<bpm>0</bpm>
<rpm>0.00</rpm>
</extensions>
</trkpt>
<trkpt lat="30.618328094" lon="34.917411804">
<ele>427.6</ele>
<time>2013-11-22T12:52:24Z</time>
<speed>0.050000</speed>
<extensions>
<speed>0.1</speed>
<temp>0.00</temp>
<bpm>0</bpm>
<rpm>0.00</rpm>
</extensions>
</trkpt>
<trkpt lat="30.618583679" lon="34.917007446">
<ele>428.1</ele>
<time>2013-11-22T12:54:44Z</time>
<speed>2.670000</speed>
<extensions>
<speed>2.7</speed>
<temp>0.00</temp>
<bpm>0</bpm>
<rpm>0.00</rpm>
</extensions>
</trkpt>
<trkpt lat="30.619016647" lon="34.916671753">
<ele>429.2</ele>
<time>2013-11-22T12:54:59Z</time>
<speed>4.020000</speed>
<extensions>
<speed>4.0</speed>
<temp>0.00</temp>
<bpm>0</bpm>
<rpm>0.00</rpm>
</extensions>
</trkpt>
<trkpt lat="30.619977951" lon="34.916923523">
<ele>432.7</ele>
<time>2013-11-22T12:55:24Z</time>
<speed>4.000000</speed>
<extensions>
<speed>4.0</speed>
<temp>0.00</temp>
<bpm>0</bpm>
<rpm>0.00</rpm>
</extensions>
</trkpt>
<trkpt lat="30.620796204" lon="34.916759491">
<ele>433.7</ele>
<time>2013-11-22T12:55:54Z</time>
<speed>3.990000</speed>
<extensions>
<speed>4.0</speed>
<temp>0.00</temp>
<bpm>0</bpm>
<rpm>0.00</rpm>
</extensions>
</trkpt>
<trkpt lat="30.622739792" lon="34.915466309">
<ele>445.1</ele>
<time>2013-11-22T12:57:04Z</time>
<speed>3.450000</speed>
<extensions>
<speed>3.5</speed>
<temp>0.00</temp>
<bpm>0</bpm>
<rpm>0.00</rpm>
</extensions>
</trkpt>
<trkpt lat="30.623558044" lon="34.915313721">
<ele>436.7</ele>
<time>2013-11-22T12:57:29Z</time>
<speed>5.570000</speed>
<extensions>
<speed>5.6</speed>
<temp>0.00</temp>
<bpm>0</bpm>
<rpm>0.00</rpm>
</extensions>
</trkpt>
<trkpt lat="30.623922348" lon="34.914871216">
<ele>434.9</ele>
<time>2013-11-22T12:57:39Z</time>
<speed>7.560000</speed>
<extensions>
<speed>7.6</speed>
<temp>0.00</temp>
<bpm>0</bpm>
<rpm>0.00</rpm>
</extensions>
</trkpt>
<trkpt lat="30.624021530" lon="34.913833618">
<ele>432.9</ele>
<time>2013-11-22T12:57:54Z</time>
<speed>2.150000</speed>
<extensions>
<speed>2.1</speed>
<temp>0.00</temp>
<bpm>0</bpm>
<rpm>0.00</rpm>
</extensions>
</trkpt>
<trkpt lat="30.623893738" lon="34.913379669">
<ele>437.7</ele>
<time>2013-11-22T12:58:14Z</time>
<speed>2.300000</speed>
<extensions>
<speed>2.3</speed>
<temp>0.00</temp>
<bpm>0</bpm>
<rpm>0.00</rpm>
</extensions>
</trkpt>
<trkpt lat="30.623163223" lon="34.912239075">
<ele>446.3</ele>
<time>2013-11-22T12:59:14Z</time>
<speed>3.160000</speed>
<extensions>
<speed>3.2</speed>
<temp>0.00</temp>
<bpm>0</bpm>
<rpm>0.00</rpm>
</extensions>
</trkpt>
<trkpt lat="30.621452332" lon="34.910778046">
<ele>451.5</ele>
<time>2013-11-22T13:00:19Z</time>
<speed>3.830000</speed>
<extensions>
<speed>3.8</speed>
<temp>0.00</temp>
<bpm>0</bpm>
<rpm>0.00</rpm>
</extensions>
</trkpt>
<trkpt lat="30.621194839" lon="34.910297394">
<ele>452.0</ele>
<time>2013-11-22T13:01:19Z</time>
<speed>1.700000</speed>
<extensions>
<speed>1.7</speed>
<temp>0.00</temp>
<bpm>0</bpm>
<rpm>0.00</rpm>
</extensions>
</trkpt>
<trkpt lat="30.621414185" lon="34.909881592">
<ele>453.8</ele>
<time>2013-11-22T13:01:39Z</time>
<speed>2.250000</speed>
<extensions>
<speed>2.3</speed>
<temp>0.00</temp>
<bpm>0</bpm>
<rpm>0.00</rpm>
</extensions>
</trkpt>
<trkpt lat="30.621192932" lon="34.909526825">
<ele>455.5</ele>
<time>2013-11-22T13:01:59Z</time>
<speed>1.690000</speed>
<extensions>
<speed>1.7</speed>
<temp>0.00</temp>
<bpm>0</bpm>
<rpm>0.00</rpm>
</extensions>
</trkpt>
<trkpt lat="30.621332169" lon="34.909214020">
<ele>456.1</ele>
<time>2013-11-22T13:08:29Z</time>
<speed>0.220000</speed>
<extensions>
<speed>0.2</speed>
<temp>0.00</temp>
<bpm>0</bpm>
<rpm>0.00</rpm>
</extensions>
</trkpt>
<trkpt lat="30.621183395" lon="34.909515381">
<ele>455.4</ele>
<time>2013-11-22T13:10:29Z</time>
<speed>1.920000</speed>
<extensions>
<speed>1.9</speed>
<temp>0.00</temp>
<bpm>0</bpm>
<rpm>0.00</rpm>
</extensions>
</trkpt>
<trkpt lat="30.621419907" lon="34.909816742">
<ele>454.1</ele>
<time>2013-11-22T13:10:49Z</time>
<speed>2.110000</speed>
<extensions>
<speed>2.1</speed>
<temp>0.00</temp>
<bpm>0</bpm>
<rpm>0.00</rpm>
</extensions>
</trkpt>
<trkpt lat="30.621208191" lon="34.910190582">
<ele>452.0</ele>
<time>2013-11-22T13:10:59Z</time>
<speed>4.570000</speed>
<extensions>
<speed>4.6</speed>
<temp>0.00</temp>
<bpm>0</bpm>
<rpm>0.00</rpm>
</extensions>
</trkpt>
<trkpt lat="30.621051788" lon="34.910202026">
<ele>451.6</ele>
<time>2013-11-22T13:11:04Z</time>
<speed>4.020000</speed>
<extensions>
<speed>4.0</speed>
<temp>0.00</temp>
<bpm>0</bpm>
<rpm>0.00</rpm>
</extensions>
</trkpt>
<trkpt lat="30.619926453" lon="34.908649445">
<ele>453.5</ele>
<time>2013-11-22T13:11:59Z</time>
<speed>3.830000</speed>
<extensions>
<speed>3.8</speed>
<temp>0.00</temp>
<bpm>0</bpm>
<rpm>0.00</rpm>
</extensions>
</trkpt>
<trkpt lat="30.618875504" lon="34.904914856">
<ele>460.5</ele>
<time>2013-11-22T13:13:39Z</time>
<speed>3.540000</speed>
<extensions>
<speed>3.5</speed>
<temp>0.00</temp>
<bpm>0</bpm>
<rpm>0.00</rpm>
</extensions>
</trkpt>
<trkpt lat="30.617971420" lon="34.903167725">
<ele>453.6</ele>
<time>2013-11-22T13:14:09Z</time>
<speed>7.920000</speed>
<extensions>
<speed>7.9</speed>
<temp>0.00</temp>
<bpm>0</bpm>
<rpm>0.00</rpm>
</extensions>
</trkpt>
<trkpt lat="30.617469788" lon="34.902740479">
<ele>455.8</ele>
<time>2013-11-22T13:14:19Z</time>
<speed>5.590000</speed>
<extensions>
<speed>5.6</speed>
<temp>0.00</temp>
<bpm>0</bpm>
<rpm>0.00</rpm>
</extensions>
</trkpt>
<trkpt lat="30.617435455" lon="34.902175903">
<ele>454.3</ele>
<time>2013-11-22T13:14:29Z</time>
<speed>5.060000</speed>
<extensions>
<speed>5.1</speed>
<temp>0.00</temp>
<bpm>0</bpm>
<rpm>0.00</rpm>
</extensions>
</trkpt>
<trkpt lat="30.618139267" lon="34.897705078">
<ele>460.8</ele>
<time>2013-11-22T13:16:14Z</time>
<speed>2.780000</speed>
<extensions>
<speed>2.8</speed>
<temp>0.00</temp>
<bpm>0</bpm>
<rpm>0.00</rpm>
</extensions>
</trkpt>
<trkpt lat="30.617956161" lon="34.896987915">
<ele>465.4</ele>
<time>2013-11-22T13:16:44Z</time>
<speed>2.150000</speed>
<extensions>
<speed>2.1</speed>
<temp>0.00</temp>
<bpm>0</bpm>
<rpm>0.00</rpm>
</extensions>
</trkpt>
<trkpt lat="30.617176056" lon="34.896137238">
<ele>476.0</ele>
<time>2013-11-22T13:17:49Z</time>
<speed>2.050000</speed>
<extensions>
<speed>2.1</speed>
<temp>0.00</temp>
<bpm>0</bpm>
<rpm>0.00</rpm>
</extensions>
</trkpt>
<trkpt lat="30.617034912" lon="34.895309448">
<ele>478.7</ele>
<time>2013-11-22T13:18:19Z</time>
<speed>3.480000</speed>
<extensions>
<speed>3.5</speed>
<temp>0.00</temp>
<bpm>0</bpm>
<rpm>0.00</rpm>
</extensions>
</trkpt>
<trkpt lat="30.617259979" lon="34.892177582">
<ele>476.1</ele>
<time>2013-11-22T13:19:19Z</time>
<speed>1.580000</speed>
<extensions>
<speed>1.6</speed>
<temp>0.00</temp>
<bpm>0</bpm>
<rpm>0.00</rpm>
</extensions>
</trkpt>
<trkpt lat="30.617029190" lon="34.891216278">
<ele>480.5</ele>
<time>2013-11-22T13:19:59Z</time>
<speed>3.600000</speed>
<extensions>
<speed>3.6</speed>
<temp>0.00</temp>
<bpm>0</bpm>
<rpm>0.00</rpm>
</extensions>
</trkpt>
<trkpt lat="30.617387772" lon="34.890430450">
<ele>482.1</ele>
<time>2013-11-22T13:20:24Z</time>
<speed>3.220000</speed>
<extensions>
<speed>3.2</speed>
<temp>0.00</temp>
<bpm>0</bpm>
<rpm>0.00</rpm>
</extensions>
</trkpt>
<trkpt lat="30.617628098" lon="34.890476227">
<ele>480.9</ele>
<time>2013-11-22T13:20:39Z</time>
<speed>0.050000</speed>
<extensions>
<speed>0.1</speed>
<temp>0.00</temp>
<bpm>0</bpm>
<rpm>0.00</rpm>
</extensions>
</trkpt>
<trkpt lat="30.617429733" lon="34.890361786">
<ele>482.3</ele>
<time>2013-11-22T13:21:14Z</time>
<speed>2.700000</speed>
<extensions>
<speed>2.7</speed>
<temp>0.00</temp>
<bpm>0</bpm>
<rpm>0.00</rpm>
</extensions>
</trkpt>
<trkpt lat="30.617614746" lon="34.889434814">
<ele>483.5</ele>
<time>2013-11-22T13:21:39Z</time>
<speed>3.820000</speed>
<extensions>
<speed>3.8</speed>
<temp>0.00</temp>
<bpm>0</bpm>
<rpm>0.00</rpm>
</extensions>
</trkpt>
<trkpt lat="30.617525101" lon="34.888923645">
<ele>482.9</ele>
<time>2013-11-22T13:21:49Z</time>
<speed>5.950000</speed>
<extensions>
<speed>6.0</speed>
<temp>0.00</temp>
<bpm>0</bpm>
<rpm>0.00</rpm>
</extensions>
</trkpt>
<trkpt lat="30.617233276" lon="34.888298035">
<ele>481.4</ele>
<time>2013-11-22T13:21:59Z</time>
<speed>6.750000</speed>
<extensions>
<speed>6.7</speed>
<temp>0.00</temp>
<bpm>0</bpm>
<rpm>0.00</rpm>
</extensions>
</trkpt>
<trkpt lat="30.615539551" lon="34.885948181">
<ele>478.9</ele>
<time>2013-11-22T13:23:14Z</time>
<speed>2.620000</speed>
<extensions>
<speed>2.6</speed>
<temp>0.00</temp>
<bpm>0</bpm>
<rpm>0.00</rpm>
</extensions>
</trkpt>
<trkpt lat="30.614139557" lon="34.884696960">
<ele>477.1</ele>
<time>2013-11-22T13:23:59Z</time>
<speed>4.230000</speed>
<extensions>
<speed>4.2</speed>
<temp>0.00</temp>
<bpm>0</bpm>
<rpm>0.00</rpm>
</extensions>
</trkpt>
<trkpt lat="30.614009857" lon="34.883499146">
<ele>481.4</ele>
<time>2013-11-22T13:24:39Z</time>
<speed>3.660000</speed>
<extensions>
<speed>3.7</speed>
<temp>0.00</temp>
<bpm>0</bpm>
<rpm>0.00</rpm>
</extensions>
</trkpt>
<trkpt lat="30.613103867" lon="34.881359100">
<ele>481.8</ele>
<time>2013-11-22T13:25:34Z</time>
<speed>4.800000</speed>
<extensions>
<speed>4.8</speed>
<temp>0.00</temp>
<bpm>0</bpm>
<rpm>0.00</rpm>
</extensions>
</trkpt>
<trkpt lat="30.611932755" lon="34.879562378">
<ele>483.0</ele>
<time>2013-11-22T13:26:24Z</time>
<speed>4.410000</speed>
<extensions>
<speed>4.4</speed>
<temp>0.00</temp>
<bpm>0</bpm>
<rpm>0.00</rpm>
</extensions>
</trkpt>
<trkpt lat="30.610475540" lon="34.877895355">
<ele>487.4</ele>
<time>2013-11-22T13:27:34Z</time>
<speed>2.950000</speed>
<extensions>
<speed>2.9</speed>
<temp>0.00</temp>
<bpm>0</bpm>
<rpm>0.00</rpm>
</extensions>
</trkpt>
<trkpt lat="30.610214233" lon="34.876533508">
<ele>485.0</ele>
<time>2013-11-22T13:28:04Z</time>
<speed>4.000000</speed>
<extensions>
<speed>4.0</speed>
<temp>0.00</temp>
<bpm>0</bpm>
<rpm>0.00</rpm>
</extensions>
</trkpt>
<trkpt lat="30.609609604" lon="34.875625610">
<ele>486.1</ele>
<time>2013-11-22T13:28:29Z</time>
<speed>4.010000</speed>
<extensions>
<speed>4.0</speed>
<temp>0.00</temp>
<bpm>0</bpm>
<rpm>0.00</rpm>
</extensions>
</trkpt>
<trkpt lat="30.607305527" lon="34.874290466">
<ele>492.1</ele>
<time>2013-11-22T13:29:49Z</time>
<speed>2.010000</speed>
<extensions>
<speed>2.0</speed>
<temp>0.00</temp>
<bpm>0</bpm>
<rpm>0.00</rpm>
</extensions>
</trkpt>
<trkpt lat="30.604442596" lon="34.874187469">
<ele>506.1</ele>
<time>2013-11-22T13:32:24Z</time>
<speed>2.890000</speed>
<extensions>
<speed>2.9</speed>
<temp>0.00</temp>
<bpm>0</bpm>
<rpm>0.00</rpm>
</extensions>
</trkpt>
<trkpt lat="30.603786469" lon="34.873558044">
<ele>504.8</ele>
<time>2013-11-22T13:32:49Z</time>
<speed>4.760000</speed>
<extensions>
<speed>4.8</speed>
<temp>0.00</temp>
<bpm>0</bpm>
<rpm>0.00</rpm>
</extensions>
</trkpt>
<trkpt lat="30.603084564" lon="34.872112274">
<ele>501.7</ele>
<time>2013-11-22T13:33:24Z</time>
<speed>3.990000</speed>
<extensions>
<speed>4.0</speed>
<temp>0.00</temp>
<bpm>0</bpm>
<rpm>0.00</rpm>
</extensions>
</trkpt>
<trkpt lat="30.602151871" lon="34.871345520">
<ele>510.0</ele>
<time>2013-11-22T13:34:34Z</time>
<speed>1.810000</speed>
<extensions>
<speed>1.8</speed>
<temp>0.00</temp>
<bpm>0</bpm>
<rpm>0.00</rpm>
</extensions>
</trkpt>
<trkpt lat="30.602090836" lon="34.871006012">
<ele>510.1</ele>
<time>2013-11-22T13:35:29Z</time>
<speed>0.010000</speed>
<extensions>
<speed>0.0</speed>
<temp>0.00</temp>
<bpm>0</bpm>
<rpm>0.00</rpm>
</extensions>
</trkpt>
<trkpt lat="30.602920532" lon="34.870044708">
<ele>509.7</ele>
<time>2013-11-22T13:37:04Z</time>
<speed>7.220000</speed>
<extensions>
<speed>7.2</speed>
<temp>0.00</temp>
<bpm>0</bpm>
<rpm>0.00</rpm>
</extensions>
</trkpt>
<trkpt lat="30.604967117" lon="34.866283417">
<ele>491.8</ele>
<time>2013-11-22T13:37:39Z</time>
<speed>13.390000</speed>
<extensions>
<speed>13.4</speed>
<temp>0.00</temp>
<bpm>0</bpm>
<rpm>0.00</rpm>
</extensions>
</trkpt>
<trkpt lat="30.605630875" lon="34.865394592">
<ele>493.6</ele>
<time>2013-11-22T13:37:49Z</time>
<speed>9.420000</speed>
<extensions>
<speed>9.4</speed>
<temp>0.00</temp>
<bpm>0</bpm>
<rpm>0.00</rpm>
</extensions>
</trkpt>
<trkpt lat="30.606536865" lon="34.864658356">
<ele>495.1</ele>
<time>2013-11-22T13:38:04Z</time>
<speed>7.470000</speed>
<extensions>
<speed>7.5</speed>
<temp>0.00</temp>
<bpm>0</bpm>
<rpm>0.00</rpm>
</extensions>
</trkpt>
<trkpt lat="30.608812332" lon="34.863426208">
<ele>498.0</ele>
<time>2013-11-22T13:39:04Z</time>
<speed>5.760000</speed>
<extensions>
<speed>5.8</speed>
<temp>0.00</temp>
<bpm>0</bpm>
<rpm>0.00</rpm>
</extensions>
</trkpt>
<trkpt lat="30.612241745" lon="34.860111237">
<ele>485.9</ele>
<time>2013-11-22T13:40:04Z</time>
<speed>5.000000</speed>
<extensions>
<speed>5.0</speed>
<temp>0.00</temp>
<bpm>0</bpm>
<rpm>0.00</rpm>
</extensions>
</trkpt>
<trkpt lat="30.612800598" lon="34.858741760">
<ele>485.7</ele>
<time>2013-11-22T13:40:34Z</time>
<speed>4.380000</speed>
<extensions>
<speed>4.4</speed>
<temp>0.00</temp>
<bpm>0</bpm>
<rpm>0.00</rpm>
</extensions>
</trkpt>
<trkpt lat="30.613140106" lon="34.856491089">
<ele>487.1</ele>
<time>2013-11-22T13:41:19Z</time>
<speed>4.980000</speed>
<extensions>
<speed>5.0</speed>
<temp>0.00</temp>
<bpm>0</bpm>
<rpm>0.00</rpm>
</extensions>
</trkpt>
<trkpt lat="30.614234924" lon="34.853767395">
<ele>496.5</ele>
<time>2013-11-22T13:42:39Z</time>
<speed>3.790000</speed>
<extensions>
<speed>3.8</speed>
<temp>0.00</temp>
<bpm>0</bpm>
<rpm>0.00</rpm>
</extensions>
</trkpt>
<trkpt lat="30.614891052" lon="34.851207733">
<ele>500.6</ele>
<time>2013-11-22T13:43:49Z</time>
<speed>3.860000</speed>
<extensions>
<speed>3.9</speed>
<temp>0.00</temp>
<bpm>0</bpm>
<rpm>0.00</rpm>
</extensions>
</trkpt>
<trkpt lat="30.615213394" lon="34.850452423">
<ele>502.1</ele>
<time>2013-11-22T13:44:09Z</time>
<speed>4.150000</speed>
<extensions>
<speed>4.1</speed>
<temp>0.00</temp>
<bpm>0</bpm>
<rpm>0.00</rpm>
</extensions>
</trkpt>
<trkpt lat="30.621026993" lon="34.843700409">
<ele>515.3</ele>
<time>2013-11-22T13:47:54Z</time>
<speed>3.680000</speed>
<extensions>
<speed>3.7</speed>
<temp>0.00</temp>
<bpm>0</bpm>
<rpm>0.00</rpm>
</extensions>
</trkpt>
<trkpt lat="30.621118546" lon="34.843582153">
<ele>515.7</ele>
<time>2013-11-22T13:47:59Z</time>
<speed>3.040000</speed>
<extensions>
<speed>3.0</speed>
<temp>0.00</temp>
<bpm>0</bpm>
<rpm>0.00</rpm>
</extensions>
</trkpt>
<trkpt lat="30.621028900" lon="34.843452454">
<ele>515.7</ele>
<time>2013-11-22T13:53:49Z</time>
<extensions>
<speed>0.0</speed>
<temp>0.00</temp>
<bpm>0</bpm>
<rpm>0.00</rpm>
</extensions>
</trkpt>
<trkpt lat="30.621339798" lon="34.843433380">
<ele>515.7</ele>
<time>2013-11-22T13:54:19Z</time>
<speed>2.690000</speed>
<extensions>
<speed>2.7</speed>
<temp>0.00</temp>
<bpm>0</bpm>
<rpm>0.00</rpm>
</extensions>
</trkpt>
<trkpt lat="30.623485565" lon="34.841415405">
<ele>518.8</ele>
<time>2013-11-22T13:55:29Z</time>
<speed>5.630000</speed>
<extensions>
<speed>5.6</speed>
<temp>0.00</temp>
<bpm>0</bpm>
<rpm>0.00</rpm>
</extensions>
</trkpt>
<trkpt lat="30.623981476" lon="34.840698242">
<ele>518.6</ele>
<time>2013-11-22T13:55:44Z</time>
<speed>6.050000</speed>
<extensions>
<speed>6.1</speed>
<temp>0.00</temp>
<bpm>0</bpm>
<rpm>0.00</rpm>
</extensions>
</trkpt>
<trkpt lat="30.624179840" lon="34.840133667">
<ele>519.3</ele>
<time>2013-11-22T13:55:54Z</time>
<speed>6.080000</speed>
<extensions>
<speed>6.1</speed>
<temp>0.00</temp>
<bpm>0</bpm>
<rpm>0.00</rpm>
</extensions>
</trkpt>
<trkpt lat="30.625034332" lon="34.824954987">
<ele>580.1</ele>
<time>2013-11-22T14:02:59Z</time>
<speed>1.960000</speed>
<extensions>
<speed>2.0</speed>
<temp>0.00</temp>
<bpm>0</bpm>
<rpm>0.00</rpm>
</extensions>
</trkpt>
<trkpt lat="30.624540329" lon="34.823390961">
<ele>588.3</ele>
<time>2013-11-22T14:04:19Z</time>
<speed>1.590000</speed>
<extensions>
<speed>1.6</speed>
<temp>0.00</temp>
<bpm>0</bpm>
<rpm>0.00</rpm>
</extensions>
</trkpt>
<trkpt lat="30.622524261" lon="34.820278168">
<ele>614.1</ele>
<time>2013-11-22T14:07:19Z</time>
<speed>1.980000</speed>
<extensions>
<speed>2.0</speed>
<temp>0.00</temp>
<bpm>0</bpm>
<rpm>0.00</rpm>
</extensions>
</trkpt>
<trkpt lat="30.621904373" lon="34.819633484">
<ele>616.7</ele>
<time>2013-11-22T14:07:59Z</time>
<speed>2.130000</speed>
<extensions>
<speed>2.1</speed>
<temp>0.00</temp>
<bpm>0</bpm>
<rpm>0.00</rpm>
</extensions>
</trkpt>
<trkpt lat="30.620550156" lon="34.819057465">
<ele>620.0</ele>
<time>2013-11-22T14:09:14Z</time>
<speed>1.930000</speed>
<extensions>
<speed>1.9</speed>
<temp>0.00</temp>
<bpm>0</bpm>
<rpm>0.00</rpm>
</extensions>
</trkpt>
<trkpt lat="30.620346069" lon="34.818737030">
<ele>630.1</ele>
<time>2013-11-22T14:09:34Z</time>
<speed>2.010000</speed>
<extensions>
<speed>2.0</speed>
<temp>0.00</temp>
<bpm>0</bpm>
<rpm>0.00</rpm>
</extensions>
</trkpt>
<trkpt lat="30.620374680" lon="34.818527222">
<ele>630.6</ele>
<time>2013-11-22T14:09:44Z</time>
<speed>1.460000</speed>
<extensions>
<speed>1.5</speed>
<temp>0.00</temp>
<bpm>0</bpm>
<rpm>0.00</rpm>
</extensions>
</trkpt>
<trkpt lat="30.620634079" lon="34.818336487">
<ele>634.5</ele>
<time>2013-11-22T14:10:04Z</time>
<speed>1.060000</speed>
<extensions>
<speed>1.1</speed>
<temp>0.00</temp>
<bpm>0</bpm>
<rpm>0.00</rpm>
</extensions>
</trkpt>
<trkpt lat="30.622663498" lon="34.818923950">
<ele>643.9</ele>
<time>2013-11-22T14:13:14Z</time>
<speed>2.060000</speed>
<extensions>
<speed>2.1</speed>
<temp>0.00</temp>
<bpm>0</bpm>
<rpm>0.00</rpm>
</extensions>
</trkpt>
<trkpt lat="30.623121262" lon="34.818801880">
<ele>655.4</ele>
<time>2013-11-22T14:13:39Z</time>
<speed>2.070000</speed>
<extensions>
<speed>2.1</speed>
<temp>0.00</temp>
<bpm>0</bpm>
<rpm>0.00</rpm>
</extensions>
</trkpt>
<trkpt lat="30.622917175" lon="34.818435669">
<ele>659.5</ele>
<time>2013-11-22T14:13:54Z</time>
<speed>1.880000</speed>
<extensions>
<speed>1.9</speed>
<temp>0.00</temp>
<bpm>0</bpm>
<rpm>0.00</rpm>
</extensions>
</trkpt>
<trkpt lat="30.621284485" lon="34.817703247">
<ele>661.7</ele>
<time>2013-11-22T14:15:34Z</time>
<speed>1.930000</speed>
<extensions>
<speed>1.9</speed>
<temp>0.00</temp>
<bpm>0</bpm>
<rpm>0.00</rpm>
</extensions>
</trkpt>
<trkpt lat="30.621290207" lon="34.817443848">
<ele>670.6</ele>
<time>2013-11-22T14:15:49Z</time>
<speed>2.050000</speed>
<extensions>
<speed>2.1</speed>
<temp>0.00</temp>
<bpm>0</bpm>
<rpm>0.00</rpm>
</extensions>
</trkpt>
<trkpt lat="30.623327255" lon="34.818080902">
<ele>679.9</ele>
<time>2013-11-22T14:18:54Z</time>
<speed>1.690000</speed>
<extensions>
<speed>1.7</speed>
<temp>0.00</temp>
<bpm>0</bpm>
<rpm>0.00</rpm>
</extensions>
</trkpt>
<trkpt lat="30.623529434" lon="34.817813873">
<ele>696.5</ele>
<time>2013-11-22T14:19:19Z</time>
<speed>0.890000</speed>
<extensions>
<speed>0.9</speed>
<temp>0.00</temp>
<bpm>0</bpm>
<rpm>0.00</rpm>
</extensions>
</trkpt>
<trkpt lat="30.622098923" lon="34.817070007">
<ele>706.2</ele>
<time>2013-11-22T14:21:09Z</time>
<speed>1.620000</speed>
<extensions>
<speed>1.6</speed>
<temp>0.00</temp>
<bpm>0</bpm>
<rpm>0.00</rpm>
</extensions>
</trkpt>
<trkpt lat="30.621011734" lon="34.815780640">
<ele>701.4</ele>
<time>2013-11-22T14:22:34Z</time>
<speed>2.180000</speed>
<extensions>
<speed>2.2</speed>
<temp>0.00</temp>
<bpm>0</bpm>
<rpm>0.00</rpm>
</extensions>
</trkpt>
<trkpt lat="30.619707108" lon="34.814952850">
<ele>718.2</ele>
<time>2013-11-22T14:23:39Z</time>
<speed>1.110000</speed>
<extensions>
<speed>1.1</speed>
<temp>0.00</temp>
<bpm>0</bpm>
<rpm>0.00</rpm>
</extensions>
</trkpt>
<trkpt lat="30.617830276" lon="34.810745239">
<ele>751.7</ele>
<time>2013-11-22T14:27:44Z</time>
<speed>1.900000</speed>
<extensions>
<speed>1.9</speed>
<temp>0.00</temp>
<bpm>0</bpm>
<rpm>0.00</rpm>
</extensions>
</trkpt>
<trkpt lat="30.616628647" lon="34.809410095">
<ele>769.9</ele>
<time>2013-11-22T14:29:59Z</time>
<speed>0.720000</speed>
<extensions>
<speed>0.7</speed>
<temp>0.00</temp>
<bpm>0</bpm>
<rpm>0.00</rpm>
</extensions>
</trkpt>
<trkpt lat="30.616155624" lon="34.809173584">
<ele>766.9</ele>
<time>2013-11-22T14:31:29Z</time>
<speed>1.300000</speed>
<extensions>
<speed>1.3</speed>
<temp>0.00</temp>
<bpm>0</bpm>
<rpm>0.00</rpm>
</extensions>
</trkpt>
<trkpt lat="30.615320206" lon="34.809219360">
<ele>772.4</ele>
<time>2013-11-22T14:32:19Z</time>
<speed>2.050000</speed>
<extensions>
<speed>2.1</speed>
<temp>0.00</temp>
<bpm>0</bpm>
<rpm>0.00</rpm>
</extensions>
</trkpt>
<trkpt lat="30.612052917" lon="34.808696747">
<ele>798.6</ele>
<time>2013-11-22T14:35:39Z</time>
<speed>1.380000</speed>
<extensions>
<speed>1.4</speed>
<temp>0.00</temp>
<bpm>0</bpm>
<rpm>0.00</rpm>
</extensions>
</trkpt>
<trkpt lat="30.609970093" lon="34.808105469">
<ele>822.4</ele>
<time>2013-11-22T14:37:54Z</time>
<speed>1.800000</speed>
<extensions>
<speed>1.8</speed>
<temp>0.00</temp>
<bpm>0</bpm>
<rpm>0.00</rpm>
</extensions>
</trkpt>
<trkpt lat="30.609636307" lon="34.807548523">
<ele>832.1</ele>
<time>2013-11-22T14:38:24Z</time>
<speed>1.530000</speed>
<extensions>
<speed>1.5</speed>
<temp>0.00</temp>
<bpm>0</bpm>
<rpm>0.00</rpm>
</extensions>
</trkpt>
<trkpt lat="30.609685898" lon="34.807094574">
<ele>841.3</ele>
<time>2013-11-22T14:38:44Z</time>
<speed>1.660000</speed>
<extensions>
<speed>1.7</speed>
<temp>0.00</temp>
<bpm>0</bpm>
<rpm>0.00</rpm>
</extensions>
</trkpt>
<trkpt lat="30.610843658" lon="34.805408478">
<ele>841.2</ele>
<time>2013-11-22T14:40:29Z</time>
<speed>1.990000</speed>
<extensions>
<speed>2.0</speed>
<temp>0.00</temp>
<bpm>0</bpm>
<rpm>0.00</rpm>
</extensions>
</trkpt>
<trkpt lat="30.610847473" lon="34.804748535">
<ele>843.6</ele>
<time>2013-11-22T14:40:59Z</time>
<speed>2.240000</speed>
<extensions>
<speed>2.2</speed>
<temp>0.00</temp>
<bpm>0</bpm>
<rpm>0.00</rpm>
</extensions>
</trkpt>
<trkpt lat="30.610860825" lon="34.804904938">
<ele>843.3</ele>
<time>2013-11-22T14:41:09Z</time>
<speed>0.710000</speed>
<extensions>
<speed>0.7</speed>
<temp>0.00</temp>
<bpm>0</bpm>
<rpm>0.00</rpm>
</extensions>
</trkpt>
<trkpt lat="30.609346390" lon="34.806026459">
<ele>853.9</ele>
<time>2013-11-22T14:42:29Z</time>
<speed>0.660000</speed>
<extensions>
<speed>0.7</speed>
<temp>0.00</temp>
<bpm>0</bpm>
<rpm>0.00</rpm>
</extensions>
</trkpt>
<trkpt lat="30.608778000" lon="34.805744171">
<ele>855.7</ele>
<time>2013-11-22T14:42:54Z</time>
<speed>2.340000</speed>
<extensions>
<speed>2.3</speed>
<temp>0.00</temp>
<bpm>0</bpm>
<rpm>0.00</rpm>
</extensions>
</trkpt>
<trkpt lat="30.608348846" lon="34.805858612">
<ele>858.2</ele>
<time>2013-11-22T14:43:24Z</time>
<speed>1.090000</speed>
<extensions>
<speed>1.1</speed>
<temp>0.00</temp>
<bpm>0</bpm>
<rpm>0.00</rpm>
</extensions>
</trkpt>
<trkpt lat="30.608486176" lon="34.806339264">
<ele>861.3</ele>
<time>2013-11-22T14:44:29Z</time>
<speed>1.230000</speed>
<extensions>
<speed>1.2</speed>
<temp>0.00</temp>
<bpm>0</bpm>
<rpm>0.00</rpm>
</extensions>
</trkpt>
<trkpt lat="30.608364105" lon="34.806480408">
<ele>858.0</ele>
<time>2013-11-22T14:44:44Z</time>
<speed>1.240000</speed>
<extensions>
<speed>1.2</speed>
<temp>0.00</temp>
<bpm>0</bpm>
<rpm>0.00</rpm>
</extensions>
</trkpt>
<trkpt lat="30.608100891" lon="34.806285858">
<ele>856.5</ele>
<time>2013-11-22T14:45:09Z</time>
<speed>0.050000</speed>
<extensions>
<speed>0.1</speed>
<temp>0.00</temp>
<bpm>0</bpm>
<rpm>0.00</rpm>
</extensions>
</trkpt>
<trkpt lat="30.607912064" lon="34.806362152">
<ele>840.5</ele>
<time>2013-11-22T14:45:49Z</time>
<speed>0.020000</speed>
<extensions>
<speed>0.0</speed>
<temp>0.00</temp>
<bpm>0</bpm>
<rpm>0.00</rpm>
</extensions>
</trkpt>
<trkpt lat="30.607913971" lon="34.806148529">
<ele>851.0</ele>
<time>2013-11-22T14:50:54Z</time>
<speed>1.220000</speed>
<extensions>
<speed>1.2</speed>
<temp>0.00</temp>
<bpm>0</bpm>
<rpm>0.00</rpm>
</extensions>
</trkpt>
<trkpt lat="30.607683182" lon="34.806056976">
<ele>831.9</ele>
<time>2013-11-22T14:51:39Z</time>
<speed>1.330000</speed>
<extensions>
<speed>1.3</speed>
<temp>0.00</temp>
<bpm>0</bpm>
<rpm>0.00</rpm>
</extensions>
</trkpt>
<trkpt lat="30.607584000" lon="34.805786133">
<ele>834.3</ele>
<time>2013-11-22T14:52:14Z</time>
<speed>2.220000</speed>
<extensions>
<speed>2.2</speed>
<temp>0.00</temp>
<bpm>0</bpm>
<rpm>0.00</rpm>
</extensions>
</trkpt>
<trkpt lat="30.607717514" lon="34.805210114">
<ele>848.0</ele>
<time>2013-11-22T14:52:44Z</time>
<speed>3.050000</speed>
<extensions>
<speed>3.0</speed>
<temp>0.00</temp>
<bpm>0</bpm>
<rpm>0.00</rpm>
</extensions>
</trkpt>
<trkpt lat="30.608373642" lon="34.804637909">
<ele>848.9</ele>
<time>2013-11-22T14:53:14Z</time>
<speed>2.680000</speed>
<extensions>
<speed>2.7</speed>
<temp>0.00</temp>
<bpm>0</bpm>
<rpm>0.00</rpm>
</extensions>
</trkpt>
<trkpt lat="30.608888626" lon="34.804485321">
<ele>847.7</ele>
<time>2013-11-22T14:53:34Z</time>
<speed>3.910000</speed>
<extensions>
<speed>3.9</speed>
<temp>0.00</temp>
<bpm>0</bpm>
<rpm>0.00</rpm>
</extensions>
</trkpt>
<trkpt lat="30.609342575" lon="34.804134369">
<ele>848.0</ele>
<time>2013-11-22T14:53:49Z</time>
<speed>2.940000</speed>
<extensions>
<speed>2.9</speed>
<temp>0.00</temp>
<bpm>0</bpm>
<rpm>0.00</rpm>
</extensions>
</trkpt>
<trkpt lat="30.610826492" lon="34.804744720">
<ele>843.6</ele>
<time>2013-11-22T14:54:24Z</time>
<speed>2.990000</speed>
<extensions>
<speed>3.0</speed>
<temp>0.00</temp>
<bpm>0</bpm>
<rpm>0.00</rpm>
</extensions>
</trkpt>
<trkpt lat="30.612136841" lon="34.803970337">
<ele>841.2</ele>
<time>2013-11-22T14:56:39Z</time>
<speed>4.380000</speed>
<extensions>
<speed>4.4</speed>
<temp>0.00</temp>
<bpm>0</bpm>
<rpm>0.00</rpm>
</extensions>
</trkpt>
<trkpt lat="30.612487793" lon="34.803882599">
<ele>838.6</ele>
<time>2013-11-22T14:56:49Z</time>
<speed>1.650000</speed>
<extensions>
<speed>1.7</speed>
<temp>0.00</temp>
<bpm>0</bpm>
<rpm>0.00</rpm>
</extensions>
</trkpt>
<trkpt lat="30.612655640" lon="34.804256439">
<ele>838.1</ele>
<time>2013-11-22T14:57:04Z</time>
<speed>3.550000</speed>
<extensions>
<speed>3.5</speed>
<temp>0.00</temp>
<bpm>0</bpm>
<rpm>0.00</rpm>
</extensions>
</trkpt>
<trkpt lat="30.612951279" lon="34.804351807">
<ele>835.9</ele>
<time>2013-11-22T14:57:14Z</time>
<speed>4.220000</speed>
<extensions>
<speed>4.2</speed>
<temp>0.00</temp>
<bpm>0</bpm>
<rpm>0.00</rpm>
</extensions>
</trkpt>
<trkpt lat="30.613412857" lon="34.803840637">
<ele>833.9</ele>
<time>2013-11-22T14:57:29Z</time>
<speed>5.490000</speed>
<extensions>
<speed>5.5</speed>
<temp>0.00</temp>
<bpm>0</bpm>
<rpm>0.00</rpm>
</extensions>
</trkpt>
<trkpt lat="30.614530563" lon="34.803565979">
<ele>834.5</ele>
<time>2013-11-22T14:57:54Z</time>
<speed>5.000000</speed>
<extensions>
<speed>5.0</speed>
<temp>0.00</temp>
<bpm>0</bpm>
<rpm>0.00</rpm>
</extensions>
</trkpt>
<trkpt lat="30.621961594" lon="34.803844452">
<ele>824.8</ele>
<time>2013-11-22T15:00:24Z</time>
<speed>6.430000</speed>
<extensions>
<speed>6.4</speed>
<temp>0.00</temp>
<bpm>0</bpm>
<rpm>0.00</rpm>
</extensions>
</trkpt>
<trkpt lat="30.622125626" lon="34.803627014">
<ele>825.6</ele>
<time>2013-11-22T15:00:29Z</time>
<speed>5.420000</speed>
<extensions>
<speed>5.4</speed>
<temp>0.00</temp>
<bpm>0</bpm>
<rpm>0.00</rpm>
</extensions>
</trkpt>
<trkpt lat="30.621925354" lon="34.801719666">
<ele>833.8</ele>
<time>2013-11-22T15:01:29Z</time>
<speed>2.940000</speed>
<extensions>
<speed>2.9</speed>
<temp>0.00</temp>
<bpm>0</bpm>
<rpm>0.00</rpm>
</extensions>
</trkpt>
<trkpt lat="30.621711731" lon="34.801116943">
<ele>830.8</ele>
<time>2013-11-22T15:01:54Z</time>
<speed>2.730000</speed>
<extensions>
<speed>2.7</speed>
<temp>0.00</temp>
<bpm>0</bpm>
<rpm>0.00</rpm>
</extensions>
</trkpt>
<trkpt lat="30.621263504" lon="34.801269531">
<ele>830.3</ele>
<time>2013-11-22T15:02:09Z</time>
<speed>3.030000</speed>
<extensions>
<speed>3.0</speed>
<temp>0.00</temp>
<bpm>0</bpm>
<rpm>0.00</rpm>
</extensions>
</trkpt>
<trkpt lat="30.621221542" lon="34.801170349">
<ele>830.0</ele>
<time>2013-11-22T15:02:14Z</time>
<speed>1.740000</speed>
<extensions>
<speed>1.7</speed>
<temp>0.00</temp>
<bpm>0</bpm>
<rpm>0.00</rpm>
</extensions>
</trkpt>
<trkpt lat="30.621351242" lon="34.801246643">
<ele>830.6</ele>
<time>2013-11-22T15:02:24Z</time>
<speed>2.910000</speed>
<extensions>
<speed>2.9</speed>
<temp>0.00</temp>
<bpm>0</bpm>
<rpm>0.00</rpm>
</extensions>
</trkpt>
<trkpt lat="30.621673584" lon="34.801048279">
<ele>830.5</ele>
<time>2013-11-22T15:02:39Z</time>
<speed>2.920000</speed>
<extensions>
<speed>2.9</speed>
<temp>0.00</temp>
<bpm>0</bpm>
<rpm>0.00</rpm>
</extensions>
</trkpt>
<trkpt lat="30.621284485" lon="34.800304413">
<ele>828.1</ele>
<time>2013-11-22T15:03:04Z</time>
<speed>2.630000</speed>
<extensions>
<speed>2.6</speed>
<temp>0.00</temp>
<bpm>0</bpm>
<rpm>0.00</rpm>
</extensions>
</trkpt>
<trkpt lat="30.619718552" lon="34.801185608">
<ele>834.3</ele>
<time>2013-11-22T15:04:19Z</time>
<speed>0.120000</speed>
<extensions>
<speed>0.1</speed>
<temp>0.00</temp>
<bpm>0</bpm>
<rpm>0.00</rpm>
</extensions>
</trkpt>
<trkpt lat="30.619525909" lon="34.802257538">
<ele>835.7</ele>
<time>2013-11-22T15:05:24Z</time>
<speed>1.650000</speed>
<extensions>
<speed>1.7</speed>
<temp>0.00</temp>
<bpm>0</bpm>
<rpm>0.00</rpm>
</extensions>
</trkpt>
<trkpt lat="30.618703842" lon="34.802303314">
<ele>835.9</ele>
<time>2013-11-22T15:06:39Z</time>
<speed>2.650000</speed>
<extensions>
<speed>2.6</speed>
<temp>0.00</temp>
<bpm>0</bpm>
<rpm>0.00</rpm>
</extensions>
</trkpt>
<trkpt lat="30.618537903" lon="34.802051544">
<ele>837.1</ele>
<time>2013-11-22T15:06:49Z</time>
<speed>3.250000</speed>
<extensions>
<speed>3.2</speed>
<temp>0.00</temp>
<bpm>0</bpm>
<rpm>0.00</rpm>
</extensions>
</trkpt>
<trkpt lat="30.618604660" lon="34.801696777">
<ele>836.8</ele>
<time>2013-11-22T15:08:49Z</time>
<speed>0.010000</speed>
<extensions>
<speed>0.0</speed>
<temp>0.00</temp>
<bpm>0</bpm>
<rpm>0.00</rpm>
</extensions>
</trkpt>
</trkseg>
</trk>
</gpx>